Wetterdaten: Freitag, 26.02.2021
Datum Zeit Temp. Aussen Temp. o. S. Temp +5cm Feuchte Auss Luftdruck Regen Sonnenschein Regendauer Solar Windben Empfang
26.02.2021 00:00 10,9 C 10,0 C 8,4 C 92 % 1029,6 hPa 0,0 l/m 0 min 0 min 0 W/m 0,0 km/h (0 Bft) 97,87 %
26.02.2021 00:02 10,9 C 10,0 C 8,4 C 92 % 1029,6 hPa 0,0 l/m 0 min 0 min 0 W/m 0,0 km/h (0 Bft) 100,00 %
26.02.2021 00:04 10,9 C 10,0 C 8,4 C 92 % 1029,7 hPa 0,0 l/m 0 min 0 min 0 W/m 0,0 km/h (0 Bft) 97,83 %
26.02.2021 00:08 10,9 C 10,0 C 8,4 C 92 % 1029,7 hPa 0,0 l/m 0 min 0 min 0 W/m 0,0 km/h (0 Bft) 100,00 %
26.02.2021 00:10 10,8 C 10,0 C 8,4 C 92 % 1029,7 hPa 0,0 l/m 0 min 0 min 0 W/m 0,0 km/h (0 Bft) 100,00 %
26.02.2021 00:12 10,8 C 10,0 C 8,4 C 92 % 1029,7 hPa 0,0 l/m 0 min 0 min 0 W/m 0,0 km/h (0 Bft) 100,00 %
26.02.2021 00:14 10,8 C 10,0 C 8,4 C 92 % 1029,7 hPa 0,0 l/m 0 min 0 min 0 W/m 0,0 km/h (0 Bft) 100,00 %
26.02.2021 00:16 10,8 C 10,0 C 8,4 C 92 % 1029,7 hPa 0,0 l/m 0 min 0 min 0 W/m 3,2 km/h (1 Bft) 97,83 %
26.02.2021 00:18 10,8 C 9,4 C 8,4 C 92 % 1029,7 hPa 0,0 l/m 0 min 0 min 0 W/m 0,0 km/h (0 Bft) 100,00 %
26.02.2021 00:20 10,8 C 9,4 C 8,4 C 92 % 1029,7 hPa 0,0 l/m 0 min 0 min 0 W/m 0,0 km/h (0 Bft) 100,00 %
26.02.2021 00:22 10,8 C 9,4 C 8,4 C 92 % 1029,9 hPa 0,0 l/m 0 min 0 min 0 W/m 0,0 km/h (0 Bft) 100,00 %
26.02.2021 00:24 10,7 C 9,4 C 7,8 C 92 % 1030,0 hPa 0,0 l/m 0 min 0 min 0 W/m 0,0 km/h (0 Bft) 97,87 %
26.02.2021 00:26 10,7 C 9,4 C 7,8 C 92 % 1030,0 hPa 0,0 l/m 0 min 0 min 0 W/m 0,0 km/h (0 Bft) 100,00 %
26.02.2021 00:28 10,7 C 9,4 C 7,8 C 92 % 1029,9 hPa 0,0 l/m 0 min 0 min 0 W/m 0,0 km/h (0 Bft) 100,00 %
26.02.2021 00:30 10,6 C 9,4 C 7,8 C 93 % 1029,9 hPa 0,0 l/m 0 min 0 min 0 W/m 0,0 km/h (0 Bft) 100,00 %
26.02.2021 00:32 10,6 C 9,4 C 7,8 C 93 % 1029,9 hPa 0,0 l/m 0 min 0 min 0 W/m 0,0 km/h (0 Bft) 100,00 %
26.02.2021 00:34 10,6 C 9,4 C 7,8 C 93 % 1029,9 hPa 0,0 l/m 0 min 2 min 0 W/m 0,0 km/h (0 Bft) 100,00 %
26.02.2021 00:36 10,6 C 8,9 C 7,8 C 93 % 1029,9 hPa 0,0 l/m 0 min 0 min 0 W/m 3,2 km/h (1 Bft) 100,00 %
26.02.2021 00:38 10,5 C 8,9 C 7,8 C 93 % 1029,9 hPa 0,0 l/m 0 min 2 min 0 W/m 0,0 km/h (0 Bft) 97,87 %
26.02.2021 00:40 10,5 C 8,9 C 7,8 C 93 % 1030,0 hPa 0,0 l/m 0 min 2 min 0 W/m 0,0 km/h (0 Bft) 100,00 %
26.02.2021 00:42 10,5 C 8,9 C 7,8 C 93 % 1030,0 hPa 0,0 l/m 0 min 2 min 0 W/m 0,0 km/h (0 Bft) 100,00 %
26.02.2021 00:44 10,4 C 8,9 C 7,8 C 93 % 1030,0 hPa 0,0 l/m 0 min 0 min 0 W/m 0,0 km/h (0 Bft) 97,87 %
26.02.2021 00:46 10,4 C 8,9 C 7,8 C 93 % 1029,9 hPa 0,0 l/m 0 min 2 min 0 W/m 0,0 km/h (0 Bft) 100,00 %
26.02.2021 00:48 10,4 C 8,9 C 7,8 C 93 % 1029,9 hPa 0,0 l/m 0 min 2 min 0 W/m 3,2 km/h (1 Bft) 97,87 %
26.02.2021 00:50 10,3 C 8,9 C 7,8 C 93 % 1029,9 hPa 0,2 l/m 0 min 2 min 0 W/m 3,2 km/h (1 Bft) 100,00 %
26.02.2021 00:52 10,3 C 8,9 C 7,8 C 93 % 1029,9 hPa 0,0 l/m 0 min 2 min 0 W/m 0,0 km/h (0 Bft) 100,00 %
26.02.2021 00:54 10,3 C 8,9 C 7,8 C 94 % 1030,0 hPa 0,0 l/m 0 min 2 min 0 W/m 0,0 km/h (0 Bft) 100,00 %
26.02.2021 00:56 10,2 C 8,9 C 7,8 C 94 % 1030,0 hPa 0,0 l/m 0 min 2 min 0 W/m 3,2 km/h (1 Bft) 100,00 %
26.02.2021 00:58 10,2 C 8,9 C 7,8 C 94 % 1030,1 hPa 0,0 l/m 0 min 2 min 0 W/m 0,0 km/h (0 Bft) 97,87 %
26.02.2021 01:00 10,1 C 8,9 C 7,8 C 94 % 1030,2 hPa 0,0 l/m 0 min 2 min 0 W/m 0,0 km/h (0 Bft) 100,00 %
26.02.2021 01:02 10,1 C 8,9 C 7,8 C 94 % 1030,2 hPa 0,0 l/m 0 min 2 min 0 W/m 0,0 km/h (0 Bft) 100,00 %
26.02.2021 01:04 10,1 C 8,3 C 7,3 C 94 % 1030,3 hPa 0,2 l/m 0 min 2 min 0 W/m 9,7 km/h (2 Bft) 100,00 %
26.02.2021 01:06 10,0 C 8,3 C 7,8 C 94 % 1030,3 hPa 0,0 l/m 0 min 2 min 0 W/m 3,2 km/h (1 Bft) 97,87 %
26.02.2021 01:08 10,0 C 8,3 C 7,8 C 94 % 1030,4 hPa 0,2 l/m 0 min 2 min 0 W/m 0,0 km/h (0 Bft) 97,87 %
26.02.2021 01:10 10,0 C 8,3 C 7,8 C 94 % 1030,4 hPa 0,0 l/m 0 min 2 min 0 W/m 0,0 km/h (0 Bft) 97,87 %
26.02.2021 01:12 10,0 C 8,3 C 7,3 C 94 % 1030,4 hPa 0,0 l/m 0 min 2 min 0 W/m 0,0 km/h (0 Bft) 95,74 %
26.02.2021 01:14 10,0 C 8,3 C 7,3 C 95 % 1030,4 hPa 0,2 l/m 0 min 2 min 0 W/m 3,2 km/h (1 Bft) 95,65 %
26.02.2021 01:16 9,9 C 8,3 C 7,3 C 95 % 1030,4 hPa 0,0 l/m 0 min 2 min 0 W/m 3,2 km/h (1 Bft) 95,74 %
26.02.2021 01:18 9,9 C 8,3 C 7,3 C 95 % 1030,4 hPa 0,2 l/m 0 min 2 min 0 W/m 0,0 km/h (0 Bft) 97,87 %
26.02.2021 01:20 9,9 C 8,3 C 7,3 C 95 % 1030,4 hPa 0,2 l/m 0 min 2 min 0 W/m 3,2 km/h (1 Bft) 93,62 %
26.02.2021 01:22 9,9 C 8,3 C 7,3 C 95 % 1030,4 hPa 0,2 l/m 0 min 2 min 0 W/m 0,0 km/h (0 Bft) 95,74 %
26.02.2021 01:24 9,8 C 8,3 C 7,3 C 95 % 1030,4 hPa 0,2 l/m 0 min 2 min 0 W/m 0,0 km/h (0 Bft) 95,74 %
26.02.2021 01:26 9,8 C 8,3 C 7,3 C 95 % 1030,5 hPa 0,2 l/m 0 min 2 min 0 W/m 3,2 km/h (1 Bft) 95,65 %
26.02.2021 01:28 9,8 C 8,3 C 7,3 C 95 % 1030,5 hPa 0,2 l/m 0 min 2 min 0 W/m 0,0 km/h (0 Bft) 95,74 %
26.02.2021 01:30 9,7 C 8,3 C 7,3 C 95 % 1030,5 hPa 0,0 l/m 0 min 2 min 0 W/m 3,2 km/h (1 Bft) 93,62 %
26.02.2021 01:32 9,7 C 8,3 C 7,3 C 95 % 1030,5 hPa 0,2 l/m 0 min 2 min 0 W/m 25,7 km/h (4 Bft) 93,62 %
26.02.2021 01:34 9,6 C 8,3 C 7,3 C 95 % 1030,6 hPa 0,2 l/m 0 min 2 min 0 W/m 3,2 km/h (1 Bft) 93,62 %
26.02.2021 01:36 9,6 C 8,3 C 7,3 C 95 % 1030,6 hPa 0,2 l/m 0 min 2 min 0 W/m 6,4 km/h (2 Bft) 93,62 %
26.02.2021 01:38 9,5 C 8,3 C 7,3 C 95 % 1030,6 hPa 0,0 l/m 0 min 2 min 0 W/m 0,0 km/h (0 Bft) 91,49 %
26.02.2021 01:40 9,5 C 8,3 C 7,3 C 95 % 1030,6 hPa 0,0 l/m 0 min 2 min 0 W/m 0,0 km/h (0 Bft) 93,48 %
26.02.2021 01:42 9,5 C 8,3 C 7,3 C 95 % 1030,6 hPa 0,0 l/m 0 min 2 min 0 W/m 0,0 km/h (0 Bft) 91,49 %
26.02.2021 01:44 9,5 C 8,3 C 7,3 C 95 % 1030,5 hPa 0,2 l/m 0 min 2 min 0 W/m 0,0 km/h (0 Bft) 91,49 %
26.02.2021 01:46 9,4 C 7,8 C 7,3 C 95 % 1030,6 hPa 0,0 l/m 0 min 2 min 0 W/m 0,0 km/h (0 Bft) 91,49 %
26.02.2021 01:48 9,4 C 7,8 C 7,3 C 95 % 1030,6 hPa 0,0 l/m 0 min 2 min 0 W/m 0,0 km/h (0 Bft) 91,49 %
26.02.2021 01:50 9,4 C 7,8 C 7,3 C 96 % 1030,6 hPa 0,0 l/m 0 min 2 min 0 W/m 0,0 km/h (0 Bft) 93,48 %
26.02.2021 01:52 9,3 C 7,8 C 7,3 C 96 % 1030,7 hPa 0,0 l/m 0 min 2 min 0 W/m 6,4 km/h (2 Bft) 91,49 %
26.02.2021 01:54 9,3 C 7,8 C 7,3 C 96 % 1030,7 hPa 0,2 l/m 0 min 2 min 0 W/m 3,2 km/h (1 Bft) 93,62 %
26.02.2021 01:56 9,3 C 7,8 C 7,3 C 96 % 1030,7 hPa 0,0 l/m 0 min 2 min 0 W/m 0,0 km/h (0 Bft) 93,62 %
26.02.2021 01:58 9,1 C 7,8 C 6,7 C 96 % 1030,8 hPa 0,0 l/m 0 min 2 min 0 W/m 0,0 km/h (0 Bft) 93,62 %
26.02.2021 02:00 9,1 C 7,2 C 6,7 C 96 % 1030,9 hPa 0,2 l/m 0 min 2 min 0 W/m 0,0 km/h (0 Bft) 93,62 %
26.02.2021 02:02 9,0 C 7,8 C 6,7 C 96 % 1030,9 hPa 0,0 l/m 0 min 2 min 0 W/m 0,0 km/h (0 Bft) 93,48 %
26.02.2021 02:04 8,9 C 7,2 C 6,7 C 96 % 1030,9 hPa 0,0 l/m 0 min 2 min 0 W/m 0,0 km/h (0 Bft) 91,49 %
26.02.2021 02:06 8,9 C 7,2 C 6,7 C 96 % 1031,0 hPa 0,0 l/m 0 min 2 min 0 W/m 6,4 km/h (2 Bft) 91,49 %
26.02.2021 02:08 8,8 C 7,2 C 6,7 C 95 % 1031,0 hPa 0,0 l/m 0 min 2 min 0 W/m 0,0 km/h (0 Bft) 95,74 %
26.02.2021 02:10 8,8 C 7,2 C 6,7 C 95 % 1031,0 hPa 0,0 l/m 0 min 2 min 0 W/m 16,1 km/h (3 Bft) 93,62 %
26.02.2021 02:12 8,6 C 7,2 C 6,7 C 95 % 1031,0 hPa 0,0 l/m 0 min 2 min 0 W/m 0,0 km/h (0 Bft) 95,74 %
26.02.2021 02:14 8,6 C 7,2 C 6,7 C 95 % 1031,0 hPa 0,0 l/m 0 min 2 min 0 W/m 0,0 km/h (0 Bft) 95,74 %
26.02.2021 02:16 8,5 C 7,2 C 6,1 C 95 % 1031,0 hPa 0,0 l/m 0 min 0 min 0 W/m 3,2 km/h (1 Bft) 95,65 %
26.02.2021 02:18 8,4 C 7,2 C 6,1 C 95 % 1030,8 hPa 0,0 l/m 0 min 0 min 0 W/m 12,9 km/h (3 Bft) 95,74 %
26.02.2021 02:20 8,3 C 6,7 C 6,1 C 95 % 1030,8 hPa 0,0 l/m 0 min 0 min 0 W/m 0,0 km/h (0 Bft) 97,87 %
26.02.2021 02:22 8,3 C 6,7 C 6,1 C 95 % 1030,7 hPa 0,0 l/m 0 min 2 min 0 W/m 0,0 km/h (0 Bft) 93,62 %
26.02.2021 02:24 8,2 C 6,7 C 6,1 C 95 % 1030,7 hPa 0,0 l/m 0 min 0 min 0 W/m 3,2 km/h (1 Bft) 97,87 %
26.02.2021 02:26 8,1 C 6,7 C 6,1 C 95 % 1030,5 hPa 0,0 l/m 0 min 2 min 0 W/m 3,2 km/h (1 Bft) 97,83 %
26.02.2021 02:28 8,1 C 6,7 C 6,1 C 95 % 1030,4 hPa 0,0 l/m 0 min 2 min 0 W/m 6,4 km/h (2 Bft) 97,87 %
26.02.2021 02:30 8,1 C 6,7 C 6,1 C 95 % 1030,4 hPa 0,0 l/m 0 min 2 min 0 W/m 0,0 km/h (0 Bft) 97,87 %
26.02.2021 02:32 8,0 C 6,7 C 6,1 C 95 % 1030,4 hPa 0,0 l/m 0 min 2 min 0 W/m 0,0 km/h (0 Bft) 95,74 %
26.02.2021 02:34 8,0 C 6,7 C 6,1 C 95 % 1030,5 hPa 0,2 l/m 0 min 2 min 0 W/m 3,2 km/h (1 Bft) 95,74 %
26.02.2021 02:36 8,0 C 6,7 C 6,1 C 95 % 1030,6 hPa 0,0 l/m 0 min 2 min 0 W/m 0,0 km/h (0 Bft) 95,74 %
26.02.2021 02:38 8,0 C 6,7 C 6,1 C 95 % 1030,8 hPa 0,0 l/m 0 min 0 min 0 W/m 0,0 km/h (0 Bft) 97,83 %
26.02.2021 02:40 7,9 C 6,7 C 6,1 C 95 % 1030,9 hPa 0,0 l/m 0 min 0 min 0 W/m 0,0 km/h (0 Bft) 97,87 %
26.02.2021 02:42 7,9 C 6,7 C 6,1 C 95 % 1030,9 hPa 0,0 l/m 0 min 0 min 0 W/m 0,0 km/h (0 Bft) 97,87 %
26.02.2021 02:44 7,9 C 6,7 C 6,1 C 95 % 1030,8 hPa 0,0 l/m 0 min 0 min 0 W/m 0,0 km/h (0 Bft) 97,87 %
26.02.2021 02:46 7,9 C 6,7 C 6,1 C 95 % 1030,8 hPa 0,0 l/m 0 min 2 min 0 W/m 0,0 km/h (0 Bft) 97,87 %
26.02.2021 02:48 7,9 C 6,7 C 6,1 C 95 % 1031,0 hPa 0,0 l/m 0 min 2 min 0 W/m 0,0 km/h (0 Bft) 97,87 %
26.02.2021 02:50 7,9 C 6,7 C 6,1 C 95 % 1031,0 hPa 0,0 l/m 0 min 2 min 0 W/m 0,0 km/h (0 Bft) 97,83 %
26.02.2021 02:52 7,9 C 6,7 C 6,1 C 95 % 1030,9 hPa 0,0 l/m 0 min 2 min 0 W/m 0,0 km/h (0 Bft) 100,00 %
26.02.2021 02:54 7,8 C 6,7 C 6,1 C 95 % 1030,9 hPa 0,0 l/m 0 min 2 min 0 W/m 0,0 km/h (0 Bft) 100,00 %
26.02.2021 02:56 7,8 C 6,7 C 6,1 C 95 % 1030,8 hPa 0,0 l/m 0 min 2 min 0 W/m 0,0 km/h (0 Bft) 100,00 %
26.02.2021 02:58 7,8 C 6,7 C 6,1 C 95 % 1030,6 hPa 0,0 l/m 0 min 0 min 0 W/m 0,0 km/h (0 Bft) 97,87 %
26.02.2021 03:00 7,8 C 6,7 C 6,1 C 95 % 1030,4 hPa 0,0 l/m 0 min 0 min 0 W/m 0,0 km/h (0 Bft) 100,00 %
26.02.2021 03:02 7,8 C 6,7 C 6,1 C 95 % 1030,3 hPa 0,0 l/m 0 min 0 min 0 W/m 0,0 km/h (0 Bft) 100,00 %
26.02.2021 03:04 7,8 C 6,7 C 6,1 C 95 % 1030,2 hPa 0,0 l/m 0 min 0 min 0 W/m 0,0 km/h (0 Bft) 100,00 %
26.02.2021 03:06 7,8 C 6,7 C 6,1 C 95 % 1030,2 hPa 0,0 l/m 0 min 0 min 0 W/m 0,0 km/h (0 Bft) 100,00 %
26.02.2021 03:08 7,8 C 6,7 C 6,1 C 95 % 1030,2 hPa 0,0 l/m 0 min 0 min 0 W/m 0,0 km/h (0 Bft) 97,87 %
26.02.2021 03:10 7,8 C 6,7 C 6,1 C 95 % 1030,2 hPa 0,0 l/m 0 min 0 min 0 W/m 0,0 km/h (0 Bft) 100,00 %
26.02.2021 03:12 7,8 C 6,7 C 6,1 C 95 % 1030,2 hPa 0,0 l/m 0 min 0 min 0 W/m 0,0 km/h (0 Bft) 100,00 %
26.02.2021 03:14 7,8 C 6,7 C 6,1 C 95 % 1030,2 hPa 0,0 l/m 0 min 0 min 0 W/m 0,0 km/h (0 Bft) 100,00 %
26.02.2021 03:16 7,8 C 6,7 C 6,1 C 95 % 1030,3 hPa 0,0 l/m 0 min 0 min 0 W/m 0,0 km/h (0 Bft) 100,00 %
26.02.2021 03:18 7,7 C 6,7 C 6,1 C 95 % 1030,4 hPa 0,0 l/m 0 min 0 min 0 W/m 0,0 km/h (0 Bft) 97,87 %
26.02.2021 03:20 7,7 C 6,7 C 6,1 C 95 % 1030,5 hPa 0,0 l/m 0 min 0 min 0 W/m 0,0 km/h (0 Bft) 100,00 %
26.02.2021 03:22 7,7 C 6,7 C 6,1 C 95 % 1030,6 hPa 0,0 l/m 0 min 0 min 0 W/m 0,0 km/h (0 Bft) 100,00 %
26.02.2021 03:24 7,7 C 6,7 C 6,1 C 95 % 1030,7 hPa 0,0 l/m 0 min 0 min 0 W/m 0,0 km/h (0 Bft) 100,00 %
26.02.2021 03:26 7,6 C 6,7 C 6,1 C 95 % 1030,7 hPa 0,0 l/m 0 min 0 min 0 W/m 6,4 km/h (2 Bft) 97,83 %
26.02.2021 03:28 7,6 C 6,7 C 6,1 C 95 % 1030,8 hPa 0,0 l/m 0 min 0 min 0 W/m 0,0 km/h (0 Bft) 100,00 %
26.02.2021 03:30 7,6 C 6,7 C 6,1 C 95 % 1030,8 hPa 0,0 l/m 0 min 0 min 0 W/m 3,2 km/h (1 Bft) 100,00 %
26.02.2021 03:32 7,6 C 6,7 C 6,1 C 95 % 1030,8 hPa 0,0 l/m 0 min 0 min 0 W/m 0,0 km/h (0 Bft) 95,74 %
26.02.2021 03:34 7,5 C 6,7 C 6,1 C 95 % 1030,8 hPa 0,0 l/m 0 min 0 min 0 W/m 0,0 km/h (0 Bft) 100,00 %
26.02.2021 03:36 7,5 C 6,7 C 6,1 C 95 % 1030,7 hPa 0,0 l/m 0 min 0 min 0 W/m 0,0 km/h (0 Bft) 97,87 %
26.02.2021 03:38 7,5 C 6,7 C 6,1 C 95 % 1030,7 hPa 0,0 l/m 0 min 0 min 0 W/m 0,0 km/h (0 Bft) 100,00 %
26.02.2021 03:40 7,5 C 6,7 C 6,1 C 95 % 1030,6 hPa 0,0 l/m 0 min 0 min 0 W/m 0,0 km/h (0 Bft) 100,00 %
26.02.2021 03:42 7,5 C 6,7 C 6,1 C 95 % 1030,7 hPa 0,0 l/m 0 min 0 min 0 W/m 0,0 km/h (0 Bft) 100,00 %
26.02.2021 03:44 7,5 C 6,7 C 6,1 C 95 % 1030,7 hPa 0,0 l/m 0 min 0 min 0 W/m 0,0 km/h (0 Bft) 100,00 %
26.02.2021 03:46 7,5 C 6,7 C 6,1 C 95 % 1030,7 hPa 0,0 l/m 0 min 0 min 0 W/m 0,0 km/h (0 Bft) 100,00 %
26.02.2021 03:48 7,5 C 6,7 C 6,1 C 95 % 1030,7 hPa 0,0 l/m 0 min 0 min 0 W/m 0,0 km/h (0 Bft) 97,87 %
26.02.2021 03:50 7,5 C 6,7 C 6,1 C 95 % 1030,7 hPa 0,0 l/m 0 min 0 min 0 W/m 0,0 km/h (0 Bft) 100,00 %
26.02.2021 03:52 7,5 C 6,7 C 6,1 C 95 % 1030,8 hPa 0,0 l/m 0 min 0 min 0 W/m 3,2 km/h (1 Bft) 100,00 %
26.02.2021 03:54 7,5 C 6,7 C 6,1 C 95 % 1030,8 hPa 0,0 l/m 0 min 0 min 0 W/m 0,0 km/h (0 Bft) 100,00 %
26.02.2021 03:56 7,5 C 6,7 C 6,1 C 95 % 1030,7 hPa 0,0 l/m 0 min 0 min 0 W/m 0,0 km/h (0 Bft) 97,87 %
26.02.2021 03:58 7,5 C 6,7 C 6,1 C 95 % 1030,7 hPa 0,0 l/m 0 min 0 min 0 W/m 12,9 km/h (3 Bft) 100,00 %
26.02.2021 04:00 7,5 C 6,7 C 6,1 C 95 % 1030,9 hPa 0,0 l/m 0 min 0 min 0 W/m 0,0 km/h (0 Bft) 100,00 %
26.02.2021 04:02 7,5 C 6,7 C 6,1 C 95 % 1031,0 hPa 0,0 l/m 0 min 0 min 0 W/m 0,0 km/h (0 Bft) 100,00 %
26.02.2021 04:04 7,5 C 6,7 C 6,1 C 95 % 1031,0 hPa 0,0 l/m 0 min 0 min 0 W/m 0,0 km/h (0 Bft) 97,92 %
26.02.2021 04:06 7,5 C 6,7 C 6,1 C 95 % 1031,1 hPa 0,0 l/m 0 min 0 min 0 W/m 0,0 km/h (0 Bft) 95,74 %
26.02.2021 04:08 7,5 C 6,7 C 6,1 C 95 % 1031,2 hPa 0,0 l/m 0 min 0 min 0 W/m 6,4 km/h (2 Bft) 95,74 %
26.02.2021 04:10 7,5 C 6,7 C 6,1 C 95 % 1031,2 hPa 0,0 l/m 0 min 0 min 0 W/m 6,4 km/h (2 Bft) 97,87 %
26.02.2021 04:12 7,4 C 6,7 C 6,1 C 95 % 1031,2 hPa 0,0 l/m 0 min 0 min 0 W/m 0,0 km/h (0 Bft) 97,83 %
26.02.2021 04:14 7,4 C 6,1 C 5,6 C 95 % 1031,2 hPa 0,0 l/m 0 min 0 min 0 W/m 3,2 km/h (1 Bft) 97,87 %
26.02.2021 04:16 7,4 C 6,1 C 5,6 C 95 % 1031,3 hPa 0,0 l/m 0 min 0 min 0 W/m 12,9 km/h (3 Bft) 97,87 %
26.02.2021 04:18 7,4 C 6,1 C 5,6 C 95 % 1031,3 hPa 0,0 l/m 0 min 2 min 0 W/m 6,4 km/h (2 Bft) 97,87 %
26.02.2021 04:20 7,4 C 6,1 C 5,6 C 95 % 1031,3 hPa 0,0 l/m 0 min 0 min 0 W/m 0,0 km/h (0 Bft) 97,87 %
26.02.2021 04:22 7,4 C 6,1 C 5,6 C 95 % 1031,3 hPa 0,0 l/m 0 min 2 min 0 W/m 0,0 km/h (0 Bft) 93,62 %
26.02.2021 04:24 7,4 C 6,1 C 5,6 C 95 % 1031,4 hPa 0,0 l/m 0 min 2 min 0 W/m 3,2 km/h (1 Bft) 97,83 %
26.02.2021 04:26 7,3 C 6,1 C 5,6 C 95 % 1031,4 hPa 0,0 l/m 0 min 2 min 0 W/m 0,0 km/h (0 Bft) 95,74 %
26.02.2021 04:28 7,3 C 6,1 C 5,6 C 95 % 1031,3 hPa 0,0 l/m 0 min 2 min 0 W/m 0,0 km/h (0 Bft) 95,74 %
26.02.2021 04:30 7,3 C 6,1 C 5,6 C 95 % 1031,3 hPa 0,0 l/m 0 min 2 min 0 W/m 0,0 km/h (0 Bft) 95,74 %
26.02.2021 04:32 7,3 C 6,1 C 5,6 C 95 % 1031,3 hPa 0,0 l/m 0 min 2 min 0 W/m 0,0 km/h (0 Bft) 95,74 %
26.02.2021 04:34 7,3 C 6,1 C 5,6 C 95 % 1031,3 hPa 0,0 l/m 0 min 2 min 0 W/m 0,0 km/h (0 Bft) 95,74 %
26.02.2021 04:36 7,3 C 6,1 C 5,6 C 95 % 1031,3 hPa 0,0 l/m 0 min 2 min 0 W/m 3,2 km/h (1 Bft) 95,65 %
26.02.2021 04:38 7,2 C 6,1 C 5,6 C 95 % 1031,3 hPa 0,0 l/m 0 min 2 min 0 W/m 3,2 km/h (1 Bft) 95,74 %
26.02.2021 04:40 7,2 C 6,1 C 5,6 C 95 % 1031,4 hPa 0,2 l/m 0 min 2 min 0 W/m 0,0 km/h (0 Bft) 95,74 %
26.02.2021 04:42 7,2 C 6,1 C 5,6 C 94 % 1031,4 hPa 0,0 l/m 0 min 2 min 0 W/m 6,4 km/h (2 Bft) 95,74 %
26.02.2021 04:44 7,1 C 6,1 C 5,6 C 94 % 1031,4 hPa 0,0 l/m 0 min 2 min 0 W/m 0,0 km/h (0 Bft) 97,87 %
26.02.2021 04:46 7,1 C 6,1 C 5,6 C 94 % 1031,5 hPa 0,0 l/m 0 min 2 min 0 W/m 0,0 km/h (0 Bft) 97,87 %
26.02.2021 04:48 7,1 C 6,1 C 5,6 C 94 % 1031,5 hPa 0,0 l/m 0 min 2 min 0 W/m 3,2 km/h (1 Bft) 97,83 %
26.02.2021 04:50 7,1 C 6,1 C 5,6 C 94 % 1031,6 hPa 0,0 l/m 0 min 2 min 0 W/m 0,0 km/h (0 Bft) 95,74 %
26.02.2021 04:52 7,1 C 6,1 C 5,6 C 94 % 1031,6 hPa 0,0 l/m 0 min 2 min 0 W/m 0,0 km/h (0 Bft) 97,87 %
26.02.2021 04:54 7,1 C 5,6 C 5,6 C 94 % 1031,6 hPa 0,0 l/m 0 min 2 min 0 W/m 0,0 km/h (0 Bft) 97,87 %
26.02.2021 04:56 7,0 C 5,6 C 5,6 C 94 % 1031,7 hPa 0,0 l/m 0 min 2 min 0 W/m 0,0 km/h (0 Bft) 97,87 %
26.02.2021 04:58 7,0 C 5,6 C 5,6 C 94 % 1031,7 hPa 0,0 l/m 0 min 2 min 0 W/m 0,0 km/h (0 Bft) 95,74 %
26.02.2021 05:00 7,0 C 5,6 C 5,6 C 94 % 1031,7 hPa 0,0 l/m 0 min 2 min 0 W/m 0,0 km/h (0 Bft) 97,83 %
26.02.2021 05:02 7,0 C 5,6 C 5,6 C 94 % 1031,7 hPa 0,0 l/m 0 min 0 min 0 W/m 0,0 km/h (0 Bft) 95,74 %
26.02.2021 05:04 7,0 C 5,6 C 5,6 C 94 % 1031,6 hPa 0,0 l/m 0 min 0 min 0 W/m 0,0 km/h (0 Bft) 97,87 %
26.02.2021 05:06 6,9 C 6,1 C 5,6 C 94 % 1031,7 hPa 0,0 l/m 0 min 2 min 0 W/m 0,0 km/h (0 Bft) 97,87 %
26.02.2021 05:08 6,9 C 6,1 C 5,6 C 94 % 1031,8 hPa 0,0 l/m 0 min 2 min 0 W/m 0,0 km/h (0 Bft) 97,87 %
26.02.2021 05:10 6,9 C 6,1 C 5,6 C 94 % 1031,8 hPa 0,0 l/m 0 min 2 min 0 W/m 0,0 km/h (0 Bft) 97,87 %
26.02.2021 05:12 6,9 C 6,1 C 5,0 C 94 % 1031,8 hPa 0,0 l/m 0 min 2 min 0 W/m 0,0 km/h (0 Bft) 97,83 %
26.02.2021 05:14 6,8 C 6,1 C 5,0 C 94 % 1031,9 hPa 0,0 l/m 0 min 2 min 0 W/m 0,0 km/h (0 Bft) 97,87 %
26.02.2021 05:16 6,8 C 6,1 C 5,0 C 94 % 1031,9 hPa 0,0 l/m 0 min 2 min 0 W/m 0,0 km/h (0 Bft) 97,87 %
26.02.2021 05:18 6,8 C 6,1 C 5,0 C 94 % 1031,9 hPa 0,0 l/m 0 min 2 min 0 W/m 3,2 km/h (1 Bft) 100,00 %
26.02.2021 05:20 6,7 C 6,1 C 5,0 C 94 % 1031,8 hPa 0,0 l/m 0 min 2 min 0 W/m 3,2 km/h (1 Bft) 97,87 %
26.02.2021 05:22 6,7 C 5,6 C 5,0 C 94 % 1031,8 hPa 0,0 l/m 0 min 2 min 0 W/m 0,0 km/h (0 Bft) 100,00 %
26.02.2021 05:24 6,6 C 6,1 C 5,0 C 94 % 1031,8 hPa 0,0 l/m 0 min 0 min 0 W/m 0,0 km/h (0 Bft) 100,00 %
26.02.2021 05:26 6,6 C 6,1 C 5,0 C 94 % 1031,8 hPa 0,0 l/m 0 min 0 min 0 W/m 0,0 km/h (0 Bft) 100,00 %
26.02.2021 05:28 6,6 C 6,1 C 5,0 C 94 % 1031,9 hPa 0,0 l/m 0 min 2 min 0 W/m 0,0 km/h (0 Bft) 100,00 %
26.02.2021 05:30 6,6 C 5,6 C 5,0 C 94 % 1031,9 hPa 0,0 l/m 0 min 2 min 0 W/m 0,0 km/h (0 Bft) 97,87 %
26.02.2021 05:32 6,6 C 5,6 C 5,0 C 93 % 1031,9 hPa 0,0 l/m 0 min 2 min 0 W/m 0,0 km/h (0 Bft) 100,00 %
26.02.2021 05:34 6,5 C 5,6 C 5,0 C 93 % 1031,9 hPa 0,2 l/m 0 min 2 min 0 W/m 0,0 km/h (0 Bft) 100,00 %
26.02.2021 05:36 6,5 C 5,6 C 5,0 C 93 % 1032,1 hPa 0,0 l/m 0 min 2 min 0 W/m 0,0 km/h (0 Bft) 100,00 %
26.02.2021 05:38 6,5 C 5,6 C 5,0 C 93 % 1032,1 hPa 0,0 l/m 0 min 2 min 0 W/m 0,0 km/h (0 Bft) 100,00 %
26.02.2021 05:40 6,5 C 5,6 C 5,0 C 93 % 1032,2 hPa 0,0 l/m 0 min 2 min 0 W/m 0,0 km/h (0 Bft) 100,00 %
26.02.2021 05:42 6,5 C 5,6 C 5,0 C 93 % 1032,2 hPa 0,0 l/m 0 min 2 min 0 W/m 0,0 km/h (0 Bft) 100,00 %
26.02.2021 05:44 6,5 C 5,0 C 5,0 C 93 % 1032,2 hPa 0,0 l/m 0 min 2 min 0 W/m 0,0 km/h (0 Bft) 100,00 %
26.02.2021 05:46 6,5 C 5,0 C 5,0 C 93 % 1032,2 hPa 0,0 l/m 0 min 2 min 0 W/m 0,0 km/h (0 Bft) 100,00 %
26.02.2021 05:48 6,5 C 5,0 C 5,0 C 93 % 1032,3 hPa 0,0 l/m 0 min 2 min 0 W/m 0,0 km/h (0 Bft) 100,00 %
26.02.2021 05:50 6,5 C 5,6 C 5,0 C 93 % 1032,3 hPa 0,0 l/m 0 min 2 min 0 W/m 0,0 km/h (0 Bft) 100,00 %
26.02.2021 05:52 6,5 C 5,6 C 5,0 C 93 % 1032,4 hPa 0,0 l/m 0 min 2 min 0 W/m 0,0 km/h (0 Bft) 100,00 %
26.02.2021 05:54 6,5 C 5,6 C 5,0 C 93 % 1032,5 hPa 0,0 l/m 0 min 0 min 0 W/m 0,0 km/h (0 Bft) 100,00 %
26.02.2021 05:56 6,5 C 5,6 C 5,0 C 93 % 1032,5 hPa 0,0 l/m 0 min 0 min 0 W/m 0,0 km/h (0 Bft) 100,00 %
26.02.2021 05:58 6,5 C 5,6 C 5,0 C 93 % 1032,5 hPa 0,0 l/m 0 min 0 min 0 W/m 0,0 km/h (0 Bft) 97,83 %
26.02.2021 06:00 6,5 C 5,6 C 5,0 C 93 % 1032,5 hPa 0,0 l/m 0 min 0 min 0 W/m 0,0 km/h (0 Bft) 100,00 %
26.02.2021 06:02 6,5 C 5,6 C 5,0 C 93 % 1032,4 hPa 0,0 l/m 0 min 0 min 0 W/m 0,0 km/h (0 Bft) 100,00 %
26.02.2021 06:04 6,5 C 5,6 C 5,0 C 93 % 1032,3 hPa 0,0 l/m 0 min 0 min 0 W/m 0,0 km/h (0 Bft) 100,00 %
26.02.2021 06:08 6,5 C 5,6 C 5,0 C 93 % 1032,4 hPa 0,0 l/m 0 min 0 min 0 W/m 0,0 km/h (0 Bft) 98,94 %
26.02.2021 06:10 6,5 C 5,6 C 5,0 C 94 % 1032,3 hPa 0,0 l/m 0 min 0 min 0 W/m 0,0 km/h (0 Bft) 97,87 %
26.02.2021 06:12 6,5 C 5,6 C 5,0 C 94 % 1032,3 hPa 0,0 l/m 0 min 0 min 0 W/m 0,0 km/h (0 Bft) 100,00 %
26.02.2021 06:14 6,5 C 5,6 C 5,0 C 94 % 1032,3 hPa 0,0 l/m 0 min 0 min 0 W/m 0,0 km/h (0 Bft) 97,87 %
26.02.2021 06:16 6,5 C 5,6 C 5,0 C 94 % 1032,2 hPa 0,0 l/m 0 min 0 min 0 W/m 0,0 km/h (0 Bft) 100,00 %
26.02.2021 06:18 6,5 C 5,6 C 5,0 C 94 % 1032,2 hPa 0,0 l/m 0 min 0 min 0 W/m 0,0 km/h (0 Bft) 100,00 %
26.02.2021 06:20 6,5 C 5,6 C 5,0 C 94 % 1032,1 hPa 0,0 l/m 0 min 0 min 0 W/m 0,0 km/h (0 Bft) 100,00 %
26.02.2021 06:22 6,5 C 5,6 C 5,0 C 94 % 1032,0 hPa 0,0 l/m 0 min 0 min 0 W/m 0,0 km/h (0 Bft) 100,00 %
26.02.2021 06:24 6,5 C 5,6 C 5,0 C 94 % 1031,9 hPa 0,0 l/m 0 min 0 min 0 W/m 0,0 km/h (0 Bft) 95,74 %
26.02.2021 06:26 6,5 C 5,6 C 5,0 C 94 % 1032,0 hPa 0,0 l/m 0 min 0 min 0 W/m 0,0 km/h (0 Bft) 95,74 %
26.02.2021 06:28 6,5 C 5,6 C 5,0 C 94 % 1032,0 hPa 0,0 l/m 0 min 0 min 0 W/m 0,0 km/h (0 Bft) 97,83 %
26.02.2021 06:30 6,5 C 5,6 C 5,0 C 94 % 1032,1 hPa 0,0 l/m 0 min 0 min 0 W/m 0,0 km/h (0 Bft) 97,87 %
26.02.2021 06:32 6,5 C 5,6 C 5,0 C 94 % 1032,0 hPa 0,0 l/m 0 min 0 min 0 W/m 0,0 km/h (0 Bft) 97,92 %
26.02.2021 06:34 6,5 C 5,6 C 5,0 C 94 % 1032,1 hPa 0,0 l/m 0 min 0 min 0 W/m 0,0 km/h (0 Bft) 97,87 %
26.02.2021 06:36 6,5 C 5,6 C 5,0 C 94 % 1032,1 hPa 0,0 l/m 0 min 0 min 0 W/m 0,0 km/h (0 Bft) 97,87 %
26.02.2021 06:38 6,4 C 5,6 C 5,0 C 94 % 1032,1 hPa 0,0 l/m 0 min 0 min 0 W/m 0,0 km/h (0 Bft) 97,87 %
26.02.2021 06:40 6,4 C 5,6 C 5,0 C 94 % 1032,1 hPa 0,0 l/m 0 min 0 min 0 W/m 0,0 km/h (0 Bft) 95,65 %
26.02.2021 06:42 6,4 C 5,6 C 5,0 C 94 % 1032,0 hPa 0,0 l/m 0 min 0 min 0 W/m 0,0 km/h (0 Bft) 97,87 %
26.02.2021 06:44 6,4 C 5,6 C 5,0 C 94 % 1032,1 hPa 0,0 l/m 0 min 0 min 0 W/m 0,0 km/h (0 Bft) 97,87 %
26.02.2021 06:46 6,4 C 5,6 C 5,0 C 94 % 1032,2 hPa 0,0 l/m 0 min 0 min 0 W/m 0,0 km/h (0 Bft) 97,87 %
26.02.2021 06:48 6,4 C 5,6 C 5,0 C 94 % 1032,2 hPa 0,0 l/m 0 min 0 min 0 W/m 0,0 km/h (0 Bft) 97,87 %
26.02.2021 06:50 6,4 C 5,6 C 5,0 C 94 % 1032,2 hPa 0,0 l/m 0 min 0 min 0 W/m 0,0 km/h (0 Bft) 97,83 %
26.02.2021 06:52 6,4 C 5,6 C 5,0 C 94 % 1032,2 hPa 0,0 l/m 0 min 0 min 0 W/m 0,0 km/h (0 Bft) 97,87 %
26.02.2021 06:54 6,4 C 5,6 C 5,0 C 94 % 1032,1 hPa 0,0 l/m 0 min 0 min 0 W/m 0,0 km/h (0 Bft) 97,87 %
26.02.2021 06:56 6,4 C 5,6 C 5,0 C 94 % 1032,1 hPa 0,0 l/m 0 min 0 min 0 W/m 0,0 km/h (0 Bft) 97,87 %
26.02.2021 06:58 6,4 C 5,6 C 5,0 C 94 % 1032,2 hPa 0,0 l/m 0 min 0 min 0 W/m 0,0 km/h (0 Bft) 97,87 %
26.02.2021 07:00 6,4 C 5,6 C 5,0 C 94 % 1032,3 hPa 0,0 l/m 0 min 0 min 0 W/m 0,0 km/h (0 Bft) 97,87 %
26.02.2021 07:02 6,4 C 5,6 C 5,0 C 94 % 1032,3 hPa 0,0 l/m 0 min 0 min 0 W/m 0,0 km/h (0 Bft) 97,67 %
26.02.2021 07:04 6,4 C 5,6 C 5,0 C 94 % 1032,3 hPa 0,0 l/m 0 min 0 min 0 W/m 0,0 km/h (0 Bft) 97,62 %
26.02.2021 07:06 6,4 C 5,6 C 5,0 C 94 % 1032,4 hPa 0,0 l/m 0 min 0 min 0 W/m 0,0 km/h (0 Bft) 100,00 %
26.02.2021 07:08 6,4 C 5,6 C 5,0 C 94 % 1032,4 hPa 0,0 l/m 0 min 0 min 0 W/m 0,0 km/h (0 Bft) 100,00 %
26.02.2021 07:10 6,4 C 5,6 C 5,0 C 94 % 1032,4 hPa 0,0 l/m 0 min 0 min 0 W/m 0,0 km/h (0 Bft) 100,00 %
26.02.2021 07:12 6,4 C 5,6 C 5,0 C 94 % 1032,5 hPa 0,0 l/m 0 min 0 min 0 W/m 0,0 km/h (0 Bft) 100,00 %
26.02.2021 07:14 6,4 C 5,6 C 5,0 C 94 % 1032,4 hPa 0,0 l/m 0 min 0 min 0 W/m 0,0 km/h (0 Bft) 100,00 %
26.02.2021 07:16 6,4 C 5,6 C 5,0 C 94 % 1032,4 hPa 0,0 l/m 0 min 0 min 0 W/m 0,0 km/h (0 Bft) 100,00 %
26.02.2021 07:18 6,4 C 5,6 C 5,0 C 94 % 1032,4 hPa 0,0 l/m 0 min 0 min 0 W/m 0,0 km/h (0 Bft) 100,00 %
26.02.2021 07:20 6,4 C 5,6 C 5,0 C 94 % 1032,5 hPa 0,0 l/m 0 min 0 min 0 W/m 0,0 km/h (0 Bft) 100,00 %
26.02.2021 07:22 6,4 C 5,6 C 5,0 C 94 % 1032,6 hPa 0,0 l/m 0 min 0 min 0 W/m 0,0 km/h (0 Bft) 100,00 %
26.02.2021 07:24 6,4 C 5,6 C 5,0 C 94 % 1032,6 hPa 0,0 l/m 0 min 0 min 0 W/m 0,0 km/h (0 Bft) 100,00 %
26.02.2021 07:26 6,4 C 5,6 C 5,0 C 94 % 1032,6 hPa 0,0 l/m 0 min 0 min 0 W/m 0,0 km/h (0 Bft) 100,00 %
26.02.2021 07:28 6,4 C 5,6 C 5,0 C 94 % 1032,6 hPa 0,0 l/m 0 min 0 min 0 W/m 0,0 km/h (0 Bft) 100,00 %
26.02.2021 07:30 6,4 C 5,6 C 5,0 C 94 % 1032,5 hPa 0,0 l/m 0 min 0 min 0 W/m 0,0 km/h (0 Bft) 100,00 %
26.02.2021 07:32 6,3 C 5,6 C 5,0 C 94 % 1032,5 hPa 0,0 l/m 0 min 0 min 0 W/m 0,0 km/h (0 Bft) 100,00 %
26.02.2021 07:34 6,4 C 5,6 C 5,0 C 94 % 1032,6 hPa 0,0 l/m 0 min 0 min 0 W/m 0,0 km/h (0 Bft) 95,83 %
26.02.2021 07:36 6,3 C 5,6 C 5,0 C 94 % 1032,7 hPa 0,0 l/m 0 min 0 min 0 W/m 0,0 km/h (0 Bft) 95,83 %
26.02.2021 07:38 6,3 C 5,6 C 5,0 C 94 % 1032,7 hPa 0,0 l/m 0 min 0 min 0 W/m 0,0 km/h (0 Bft) 93,62 %
26.02.2021 07:40 6,4 C 5,6 C 5,0 C 94 % 1032,8 hPa 0,0 l/m 0 min 0 min 0 W/m 0,0 km/h (0 Bft) 95,74 %
26.02.2021 07:42 6,3 C 5,6 C 5,0 C 94 % 1032,9 hPa 0,0 l/m 0 min 0 min 0 W/m 0,0 km/h (0 Bft) 72,34 %
26.02.2021 07:44 6,3 C 5,6 C 5,0 C 94 % 1032,9 hPa 0,0 l/m 0 min 0 min 0 W/m 0,0 km/h (0 Bft) 77,78 %
26.02.2021 07:46 6,3 C 5,6 C 5,0 C 94 % 1032,9 hPa 0,0 l/m 0 min 0 min 0 W/m 0,0 km/h (0 Bft) 97,87 %
26.02.2021 07:48 6,3 C 5,6 C 5,0 C 94 % 1032,9 hPa 0,0 l/m 0 min 0 min 2 W/m 0,0 km/h (0 Bft) 97,87 %
26.02.2021 07:50 6,3 C 5,6 C 5,0 C 94 % 1032,9 hPa 0,0 l/m 0 min 0 min 5 W/m 0,0 km/h (0 Bft) 95,74 %
26.02.2021 07:52 6,3 C 5,6 C 5,0 C 94 % 1032,9 hPa 0,0 l/m 0 min 0 min 7 W/m 0,0 km/h (0 Bft) 97,87 %
26.02.2021 07:54 6,3 C 5,6 C 5,0 C 94 % 1032,9 hPa 0,0 l/m 0 min 0 min 9 W/m 0,0 km/h (0 Bft) 93,62 %
26.02.2021 07:56 6,3 C 5,6 C 5,0 C 94 % 1033,0 hPa 0,0 l/m 0 min 0 min 11 W/m 0,0 km/h (0 Bft) 95,74 %
26.02.2021 07:58 6,3 C 6,1 C 5,0 C 94 % 1033,0 hPa 0,0 l/m 0 min 0 min 11 W/m 0,0 km/h (0 Bft) 97,83 %
26.02.2021 08:00 6,3 C 6,1 C 5,0 C 94 % 1033,0 hPa 0,0 l/m 0 min 0 min 13 W/m 0,0 km/h (0 Bft) 97,92 %
26.02.2021 08:02 6,3 C 6,1 C 5,0 C 94 % 1033,0 hPa 0,0 l/m 0 min 0 min 15 W/m 0,0 km/h (0 Bft) 95,65 %
26.02.2021 08:04 6,4 C 6,1 C 5,0 C 94 % 1033,1 hPa 0,0 l/m 0 min 0 min 18 W/m 0,0 km/h (0 Bft) 97,62 %
26.02.2021 08:06 6,4 C 6,1 C 5,0 C 94 % 1033,0 hPa 0,0 l/m 0 min 0 min 18 W/m 0,0 km/h (0 Bft) 95,74 %
26.02.2021 08:08 6,4 C 6,1 C 5,0 C 94 % 1033,1 hPa 0,0 l/m 0 min 0 min 18 W/m 0,0 km/h (0 Bft) 94,29 %
26.02.2021 08:10 6,4 C 6,1 C 5,0 C 94 % 1033,1 hPa 0,0 l/m 0 min 0 min 19 W/m 0,0 km/h (0 Bft) 96,77 %
26.02.2021 08:12 6,4 C 6,1 C 5,0 C 94 % 1033,1 hPa 0,0 l/m 0 min 0 min 19 W/m 0,0 km/h (0 Bft) 95,65 %
26.02.2021 08:14 6,4 C 6,1 C 5,0 C 94 % 1033,1 hPa 0,0 l/m 0 min 0 min 19 W/m 0,0 km/h (0 Bft) 93,62 %
26.02.2021 08:16 6,4 C 6,1 C 5,0 C 94 % 1033,2 hPa 0,0 l/m 0 min 0 min 20 W/m 0,0 km/h (0 Bft) 97,87 %
26.02.2021 08:18 6,4 C 6,1 C 5,0 C 94 % 1033,2 hPa 0,0 l/m 0 min 0 min 21 W/m 0,0 km/h (0 Bft) 93,62 %
26.02.2021 08:20 6,4 C 6,1 C 5,0 C 94 % 1033,2 hPa 0,0 l/m 0 min 0 min 23 W/m 0,0 km/h (0 Bft) 93,62 %
26.02.2021 08:22 6,4 C 6,1 C 5,0 C 94 % 1033,3 hPa 0,0 l/m 0 min 0 min 23 W/m 0,0 km/h (0 Bft) 93,62 %
26.02.2021 08:24 6,4 C 6,1 C 5,0 C 94 % 1033,3 hPa 0,0 l/m 0 min 0 min 22 W/m 0,0 km/h (0 Bft) 95,65 %
26.02.2021 08:26 6,4 C 6,1 C 5,0 C 94 % 1033,4 hPa 0,0 l/m 0 min 0 min 22 W/m 0,0 km/h (0 Bft) 97,87 %
26.02.2021 08:28 6,4 C 6,1 C 5,0 C 95 % 1033,4 hPa 0,0 l/m 0 min 0 min 24 W/m 0,0 km/h (0 Bft) 100,00 %
26.02.2021 08:30 6,4 C 6,1 C 5,0 C 95 % 1033,4 hPa 0,0 l/m 0 min 0 min 26 W/m 0,0 km/h (0 Bft) 100,00 %
26.02.2021 08:32 6,4 C 6,1 C 5,0 C 95 % 1033,4 hPa 0,0 l/m 0 min 0 min 28 W/m 0,0 km/h (0 Bft) 95,74 %
26.02.2021 08:34 6,4 C 6,1 C 5,0 C 95 % 1033,5 hPa 0,0 l/m 0 min 0 min 30 W/m 0,0 km/h (0 Bft) 100,00 %
26.02.2021 08:36 6,4 C 6,1 C 5,0 C 95 % 1033,5 hPa 0,0 l/m 0 min 0 min 32 W/m 0,0 km/h (0 Bft) 100,00 %
26.02.2021 08:38 6,4 C 6,1 C 5,0 C 95 % 1033,6 hPa 0,0 l/m 0 min 0 min 33 W/m 0,0 km/h (0 Bft) 100,00 %
26.02.2021 08:40 6,4 C 6,1 C 5,0 C 95 % 1033,6 hPa 0,0 l/m 0 min 0 min 37 W/m 0,0 km/h (0 Bft) 100,00 %
26.02.2021 08:42 6,4 C 6,1 C 5,6 C 95 % 1033,6 hPa 0,0 l/m 0 min 0 min 41 W/m 0,0 km/h (0 Bft) 95,74 %
26.02.2021 08:44 6,4 C 6,1 C 5,6 C 95 % 1033,6 hPa 0,0 l/m 0 min 0 min 47 W/m 0,0 km/h (0 Bft) 95,74 %
26.02.2021 08:46 6,4 C 6,1 C 5,6 C 95 % 1033,6 hPa 0,0 l/m 0 min 0 min 51 W/m 0,0 km/h (0 Bft) 97,87 %
26.02.2021 08:48 6,5 C 6,1 C 5,6 C 95 % 1033,6 hPa 0,0 l/m 0 min 0 min 53 W/m 0,0 km/h (0 Bft) 95,65 %
26.02.2021 08:50 6,5 C 6,7 C 5,6 C 95 % 1033,6 hPa 0,0 l/m 0 min 0 min 58 W/m 0,0 km/h (0 Bft) 95,74 %
26.02.2021 08:52 6,5 C 6,7 C 5,6 C 95 % 1033,6 hPa 0,0 l/m 0 min 0 min 63 W/m 0,0 km/h (0 Bft) 93,75 %
26.02.2021 08:54 6,5 C 6,7 C 5,6 C 95 % 1033,6 hPa 0,0 l/m 0 min 0 min 68 W/m 0,0 km/h (0 Bft) 93,62 %
26.02.2021 08:56 6,5 C 6,7 C 5,6 C 95 % 1033,6 hPa 0,0 l/m 0 min 0 min 69 W/m 0,0 km/h (0 Bft) 78,72 %
26.02.2021 08:58 6,5 C 6,7 C 5,6 C 95 % 1033,7 hPa 0,0 l/m 0 min 0 min 69 W/m 0,0 km/h (0 Bft) 68,18 %
26.02.2021 09:00 6,5 C 6,7 C 5,6 C 95 % 1033,7 hPa 0,0 l/m 0 min 0 min 71 W/m 0,0 km/h (0 Bft) 95,65 %
26.02.2021 09:02 6,5 C 6,7 C 5,6 C 95 % 1033,8 hPa 0,0 l/m 0 min 0 min 72 W/m 0,0 km/h (0 Bft) 95,74 %
26.02.2021 09:04 6,6 C 6,7 C 6,1 C 95 % 1033,8 hPa 0,0 l/m 0 min 0 min 75 W/m 0,0 km/h (0 Bft) 93,62 %
26.02.2021 09:06 6,6 C 6,7 C 6,1 C 95 % 1033,8 hPa 0,0 l/m 0 min 0 min 77 W/m 0,0 km/h (0 Bft) 95,74 %
26.02.2021 09:08 6,6 C 6,7 C 6,1 C 95 % 1033,8 hPa 0,0 l/m 0 min 0 min 76 W/m 0,0 km/h (0 Bft) 95,74 %
26.02.2021 09:10 6,6 C 7,2 C 6,1 C 95 % 1033,8 hPa 0,0 l/m 0 min 0 min 74 W/m 0,0 km/h (0 Bft) 95,74 %
26.02.2021 09:12 6,6 C 7,2 C 6,1 C 95 % 1033,9 hPa 0,0 l/m 0 min 0 min 75 W/m 0,0 km/h (0 Bft) 95,65 %
26.02.2021 09:14 6,7 C 7,2 C 6,1 C 95 % 1033,9 hPa 0,0 l/m 0 min 0 min 76 W/m 0,0 km/h (0 Bft) 93,62 %
26.02.2021 09:16 6,7 C 7,2 C 6,1 C 95 % 1034,0 hPa 0,0 l/m 0 min 0 min 78 W/m 0,0 km/h (0 Bft) 93,62 %
26.02.2021 09:18 6,7 C 7,2 C 6,1 C 95 % 1034,0 hPa 0,0 l/m 0 min 0 min 80 W/m 0,0 km/h (0 Bft) 95,83 %
26.02.2021 09:20 6,8 C 7,2 C 6,1 C 95 % 1034,0 hPa 0,0 l/m 0 min 0 min 82 W/m 0,0 km/h (0 Bft) 95,74 %
26.02.2021 09:22 6,8 C 7,2 C 6,1 C 95 % 1033,9 hPa 0,0 l/m 0 min 0 min 89 W/m 0,0 km/h (0 Bft) 95,65 %
26.02.2021 09:24 6,8 C 7,2 C 6,1 C 95 % 1033,9 hPa 0,0 l/m 0 min 0 min 96 W/m 0,0 km/h (0 Bft) 95,74 %
26.02.2021 09:26 6,8 C 7,2 C 6,1 C 95 % 1033,7 hPa 0,0 l/m 0 min 0 min 96 W/m 0,0 km/h (0 Bft) 97,87 %
26.02.2021 09:28 6,8 C 7,2 C 6,1 C 95 % 1033,7 hPa 0,0 l/m 0 min 0 min 89 W/m 0,0 km/h (0 Bft) 97,87 %
26.02.2021 09:30 6,8 C 7,2 C 6,1 C 95 % 1033,7 hPa 0,0 l/m 0 min 0 min 85 W/m 0,0 km/h (0 Bft) 97,87 %
26.02.2021 09:32 6,9 C 7,2 C 6,1 C 95 % 1033,7 hPa 0,0 l/m 0 min 0 min 84 W/m 0,0 km/h (0 Bft) 94,44 %
26.02.2021 09:34 6,9 C 7,2 C 6,1 C 95 % 1033,7 hPa 0,0 l/m 0 min 0 min 88 W/m 0,0 km/h (0 Bft) 100,00 %
26.02.2021 09:36 6,9 C 7,2 C 6,1 C 95 % 1033,8 hPa 0,0 l/m 0 min 0 min 102 W/m 0,0 km/h (0 Bft) 95,74 %
26.02.2021 09:38 7,0 C 7,8 C 6,7 C 95 % 1033,8 hPa 0,0 l/m 0 min 0 min 111 W/m 0,0 km/h (0 Bft) 95,65 %
26.02.2021 09:40 7,0 C 7,8 C 6,7 C 94 % 1033,8 hPa 0,0 l/m 0 min 0 min 114 W/m 0,0 km/h (0 Bft) 97,87 %
26.02.2021 09:42 7,0 C 7,8 C 6,7 C 94 % 1033,8 hPa 0,0 l/m 0 min 0 min 113 W/m 0,0 km/h (0 Bft) 97,87 %
26.02.2021 09:44 7,1 C 7,8 C 6,7 C 94 % 1033,8 hPa 0,0 l/m 0 min 0 min 112 W/m 0,0 km/h (0 Bft) 97,87 %
26.02.2021 09:46 7,1 C 7,8 C 6,7 C 94 % 1033,7 hPa 0,0 l/m 0 min 0 min 117 W/m 0,0 km/h (0 Bft) 95,74 %
26.02.2021 09:48 7,1 C 7,8 C 6,7 C 94 % 1033,7 hPa 0,0 l/m 0 min 0 min 120 W/m 0,0 km/h (0 Bft) 95,74 %
26.02.2021 09:50 7,2 C 7,8 C 6,7 C 94 % 1033,7 hPa 0,0 l/m 0 min 0 min 122 W/m 0,0 km/h (0 Bft) 97,92 %
26.02.2021 09:52 7,3 C 7,8 C 6,7 C 94 % 1033,7 hPa 0,0 l/m 0 min 0 min 123 W/m 0,0 km/h (0 Bft) 97,92 %
26.02.2021 09:54 7,3 C 8,3 C 6,7 C 94 % 1033,7 hPa 0,0 l/m 0 min 0 min 124 W/m 0,0 km/h (0 Bft) 97,92 %
26.02.2021 09:56 7,4 C 8,3 C 7,3 C 94 % 1033,8 hPa 0,0 l/m 0 min 0 min 116 W/m 0,0 km/h (0 Bft) 97,83 %
26.02.2021 09:58 7,4 C 8,3 C 7,3 C 94 % 1033,8 hPa 0,0 l/m 0 min 0 min 104 W/m 0,0 km/h (0 Bft) 97,87 %
26.02.2021 10:00 7,4 C 8,3 C 6,7 C 94 % 1033,8 hPa 0,0 l/m 0 min 0 min 80 W/m 0,0 km/h (0 Bft) 97,87 %
26.02.2021 10:02 7,5 C 7,8 C 6,7 C 94 % 1033,9 hPa 0,0 l/m 0 min 0 min 71 W/m 0,0 km/h (0 Bft) 97,87 %
26.02.2021 10:04 7,5 C 7,8 C 6,7 C 94 % 1033,9 hPa 0,0 l/m 0 min 0 min 64 W/m 0,0 km/h (0 Bft) 97,87 %
26.02.2021 10:06 7,5 C 7,8 C 6,7 C 93 % 1033,9 hPa 0,0 l/m 0 min 0 min 61 W/m 0,0 km/h (0 Bft) 97,87 %
26.02.2021 10:08 7,5 C 7,8 C 6,7 C 93 % 1033,9 hPa 0,0 l/m 0 min 0 min 56 W/m 0,0 km/h (0 Bft) 95,65 %
26.02.2021 10:10 7,5 C 7,8 C 6,7 C 93 % 1034,0 hPa 0,0 l/m 0 min 0 min 60 W/m 0,0 km/h (0 Bft) 95,74 %
26.02.2021 10:12 7,6 C 7,8 C 6,7 C 93 % 1034,0 hPa 0,0 l/m 0 min 0 min 70 W/m 0,0 km/h (0 Bft) 95,74 %
26.02.2021 10:14 7,6 C 7,8 C 6,7 C 93 % 1033,9 hPa 0,0 l/m 0 min 0 min 75 W/m 0,0 km/h (0 Bft) 97,87 %
26.02.2021 10:16 7,6 C 7,8 C 6,7 C 93 % 1033,9 hPa 0,0 l/m 0 min 0 min 80 W/m 0,0 km/h (0 Bft) 100,00 %
26.02.2021 10:18 7,6 C 7,8 C 6,7 C 93 % 1034,0 hPa 0,0 l/m 0 min 0 min 76 W/m 0,0 km/h (0 Bft) 95,65 %
26.02.2021 10:20 7,6 C 7,8 C 6,7 C 92 % 1034,1 hPa 0,0 l/m 0 min 0 min 72 W/m 0,0 km/h (0 Bft) 98,15 %
26.02.2021 10:22 7,6 C 7,8 C 6,7 C 92 % 1034,1 hPa 0,0 l/m 0 min 0 min 69 W/m 0,0 km/h (0 Bft) 97,87 %
26.02.2021 10:24 7,6 C 7,8 C 6,7 C 92 % 1034,1 hPa 0,0 l/m 0 min 0 min 73 W/m 0,0 km/h (0 Bft) 97,87 %
26.02.2021 10:26 7,6 C 7,8 C 6,7 C 92 % 1034,1 hPa 0,0 l/m 0 min 0 min 82 W/m 0,0 km/h (0 Bft) 95,74 %
26.02.2021 10:28 7,7 C 7,8 C 6,7 C 92 % 1034,0 hPa 0,0 l/m 0 min 0 min 90 W/m 0,0 km/h (0 Bft) 97,87 %
26.02.2021 10:30 7,7 C 7,8 C 6,7 C 92 % 1034,0 hPa 0,0 l/m 0 min 0 min 92 W/m 0,0 km/h (0 Bft) 95,74 %
26.02.2021 10:32 7,7 C 7,8 C 6,7 C 92 % 1034,0 hPa 0,0 l/m 0 min 0 min 79 W/m 0,0 km/h (0 Bft) 93,62 %
26.02.2021 10:34 7,7 C 7,8 C 6,7 C 92 % 1034,1 hPa 0,0 l/m 0 min 0 min 58 W/m 0,0 km/h (0 Bft) 97,83 %
26.02.2021 10:36 7,7 C 7,8 C 6,7 C 92 % 1034,1 hPa 0,0 l/m 0 min 0 min 48 W/m 0,0 km/h (0 Bft) 97,87 %
26.02.2021 10:38 7,7 C 7,8 C 6,7 C 92 % 1034,0 hPa 0,0 l/m 0 min 0 min 51 W/m 0,0 km/h (0 Bft) 94,74 %
26.02.2021 10:40 7,7 C 7,8 C 6,1 C 92 % 1034,1 hPa 0,0 l/m 0 min 0 min 54 W/m 0,0 km/h (0 Bft) 97,96 %
26.02.2021 10:42 7,8 C 7,8 C 6,7 C 91 % 1034,1 hPa 0,0 l/m 0 min 0 min 52 W/m 0,0 km/h (0 Bft) 95,65 %
26.02.2021 10:44 7,8 C 7,8 C 6,7 C 91 % 1034,1 hPa 0,0 l/m 0 min 0 min 49 W/m 0,0 km/h (0 Bft) 95,74 %
26.02.2021 10:46 7,8 C 7,8 C 6,7 C 91 % 1034,1 hPa 0,0 l/m 0 min 0 min 51 W/m 0,0 km/h (0 Bft) 97,87 %
26.02.2021 10:48 7,8 C 7,8 C 6,7 C 91 % 1034,1 hPa 0,0 l/m 0 min 0 min 50 W/m 0,0 km/h (0 Bft) 95,74 %
26.02.2021 10:50 7,8 C 7,8 C 6,7 C 91 % 1034,1 hPa 0,0 l/m 0 min 0 min 47 W/m 0,0 km/h (0 Bft) 97,87 %
26.02.2021 10:52 7,8 C 8,3 C 6,7 C 91 % 1034,1 hPa 0,0 l/m 0 min 0 min 52 W/m 0,0 km/h (0 Bft) 97,87 %
26.02.2021 10:54 7,8 C 8,3 C 6,7 C 91 % 1034,2 hPa 0,0 l/m 0 min 0 min 60 W/m 0,0 km/h (0 Bft) 97,87 %
26.02.2021 10:56 7,9 C 8,3 C 6,7 C 91 % 1034,2 hPa 0,0 l/m 0 min 0 min 64 W/m 0,0 km/h (0 Bft) 93,48 %
26.02.2021 10:58 7,9 C 8,3 C 6,7 C 91 % 1034,2 hPa 0,0 l/m 0 min 0 min 64 W/m 0,0 km/h (0 Bft) 97,87 %
26.02.2021 11:00 7,9 C 8,3 C 6,7 C 91 % 1034,2 hPa 0,0 l/m 0 min 0 min 56 W/m 0,0 km/h (0 Bft) 97,87 %
26.02.2021 11:02 8,0 C 8,3 C 6,7 C 91 % 1034,2 hPa 0,0 l/m 0 min 0 min 59 W/m 0,0 km/h (0 Bft) 97,87 %
26.02.2021 11:04 8,0 C 8,9 C 6,7 C 90 % 1034,3 hPa 0,0 l/m 0 min 0 min 64 W/m 0,0 km/h (0 Bft) 93,62 %
26.02.2021 11:06 8,0 C 8,9 C 6,7 C 90 % 1034,3 hPa 0,0 l/m 0 min 0 min 71 W/m 0,0 km/h (0 Bft) 97,83 %
26.02.2021 11:08 8,1 C 8,9 C 6,7 C 90 % 1034,3 hPa 0,0 l/m 0 min 0 min 71 W/m 0,0 km/h (0 Bft) 97,87 %
26.02.2021 11:10 8,1 C 8,9 C 6,7 C 90 % 1034,3 hPa 0,0 l/m 0 min 0 min 58 W/m 0,0 km/h (0 Bft) 95,74 %
26.02.2021 11:12 8,2 C 8,9 C 6,7 C 90 % 1034,3 hPa 0,0 l/m 0 min 0 min 63 W/m 0,0 km/h (0 Bft) 100,00 %
26.02.2021 11:14 8,2 C 8,9 C 6,7 C 90 % 1034,3 hPa 0,0 l/m 0 min 0 min 64 W/m 0,0 km/h (0 Bft) 97,87 %
26.02.2021 11:16 8,3 C 8,9 C 6,7 C 90 % 1034,3 hPa 0,0 l/m 0 min 0 min 119 W/m 0,0 km/h (0 Bft) 100,00 %
26.02.2021 11:18 8,3 C 8,9 C 7,3 C 90 % 1034,3 hPa 0,0 l/m 2 min 0 min 236 W/m 0,0 km/h (0 Bft) 97,83 %
26.02.2021 11:20 8,3 C 9,4 C 7,3 C 89 % 1034,3 hPa 0,0 l/m 2 min 0 min 362 W/m 0,0 km/h (0 Bft) 95,74 %
26.02.2021 11:22 8,4 C 10,0 C 7,3 C 90 % 1034,4 hPa 0,0 l/m 2 min 0 min 334 W/m 0,0 km/h (0 Bft) 95,74 %
26.02.2021 11:24 8,4 C 12,2 C 7,3 C 89 % 1034,3 hPa 0,0 l/m 2 min 0 min 279 W/m 0,0 km/h (0 Bft) 95,74 %
26.02.2021 11:26 8,5 C 12,8 C 7,3 C 89 % 1034,3 hPa 0,0 l/m 2 min 0 min 358 W/m 0,0 km/h (0 Bft) 97,87 %
26.02.2021 11:28 8,5 C 12,2 C 7,3 C 89 % 1034,4 hPa 0,0 l/m 2 min 0 min 369 W/m 0,0 km/h (0 Bft) 97,87 %
26.02.2021 11:30 8,6 C 11,1 C 7,3 C 88 % 1034,4 hPa 0,0 l/m 2 min 0 min 459 W/m 0,0 km/h (0 Bft) 97,83 %
26.02.2021 11:32 8,6 C 10,6 C 7,3 C 88 % 1034,4 hPa 0,0 l/m 2 min 0 min 474 W/m 0,0 km/h (0 Bft) 95,74 %
26.02.2021 11:34 8,8 C 10,0 C 7,3 C 87 % 1034,4 hPa 0,0 l/m 2 min 0 min 484 W/m 0,0 km/h (0 Bft) 97,87 %
26.02.2021 11:36 8,8 C 10,6 C 7,8 C 87 % 1034,4 hPa 0,0 l/m 2 min 0 min 479 W/m 0,0 km/h (0 Bft) 97,87 %
26.02.2021 11:38 8,9 C 10,0 C 7,8 C 86 % 1034,4 hPa 0,0 l/m 2 min 0 min 452 W/m 0,0 km/h (0 Bft) 97,87 %
26.02.2021 11:40 9,0 C 10,0 C 7,8 C 86 % 1034,4 hPa 0,0 l/m 2 min 0 min 410 W/m 0,0 km/h (0 Bft) 95,74 %
26.02.2021 11:42 9,1 C 11,1 C 7,8 C 86 % 1034,5 hPa 0,0 l/m 2 min 0 min 493 W/m 0,0 km/h (0 Bft) 93,48 %
26.02.2021 11:44 9,2 C 13,9 C 7,8 C 85 % 1034,5 hPa 0,0 l/m 2 min 0 min 498 W/m 0,0 km/h (0 Bft) 97,87 %
26.02.2021 11:46 9,3 C 15,0 C 8,9 C 85 % 1034,5 hPa 0,0 l/m 2 min 0 min 498 W/m 0,0 km/h (0 Bft) 97,87 %
26.02.2021 11:48 9,4 C 16,1 C 11,1 C 85 % 1034,5 hPa 0,0 l/m 2 min 0 min 499 W/m 0,0 km/h (0 Bft) 97,87 %
26.02.2021 11:50 9,5 C 16,7 C 11,7 C 85 % 1034,5 hPa 0,0 l/m 2 min 0 min 503 W/m 0,0 km/h (0 Bft) 97,87 %
26.02.2021 11:52 9,6 C 16,7 C 12,8 C 85 % 1034,5 hPa 0,0 l/m 2 min 0 min 507 W/m 0,0 km/h (0 Bft) 97,87 %
26.02.2021 11:54 9,7 C 16,7 C 12,3 C 84 % 1034,5 hPa 0,0 l/m 2 min 0 min 509 W/m 0,0 km/h (0 Bft) 97,83 %
26.02.2021 11:56 9,9 C 16,7 C 11,7 C 83 % 1034,5 hPa 0,0 l/m 2 min 0 min 515 W/m 0,0 km/h (0 Bft) 97,87 %
26.02.2021 11:58 9,9 C 16,7 C 13,4 C 83 % 1034,5 hPa 0,0 l/m 2 min 0 min 528 W/m 6,4 km/h (2 Bft) 97,87 %
26.02.2021 12:00 10,0 C 15,6 C 15,0 C 81 % 1034,5 hPa 0,0 l/m 2 min 0 min 524 W/m 0,0 km/h (0 Bft) 98,11 %
26.02.2021 12:02 10,1 C 16,1 C 16,7 C 81 % 1034,5 hPa 0,0 l/m 2 min 0 min 494 W/m 0,0 km/h (0 Bft) 97,87 %
26.02.2021 12:04 10,3 C 16,7 C 17,8 C 81 % 1034,5 hPa 0,0 l/m 2 min 0 min 541 W/m 3,2 km/h (1 Bft) 97,87 %
26.02.2021 12:08 10,5 C 16,1 C 18,4 C 79 % 1034,6 hPa 0,0 l/m 4 min 0 min 540 W/m 6,4 km/h (2 Bft) 97,62 %
26.02.2021 12:10 10,6 C 16,1 C 18,4 C 78 % 1034,6 hPa 0,0 l/m 2 min 0 min 547 W/m 0,0 km/h (0 Bft) 97,96 %
26.02.2021 12:12 10,6 C 16,1 C 18,4 C 77 % 1034,5 hPa 0,2 l/m 2 min 0 min 555 W/m 0,0 km/h (0 Bft) 95,83 %
26.02.2021 12:14 10,8 C 16,7 C 19,5 C 78 % 1034,6 hPa 0,0 l/m 2 min 0 min 557 W/m 0,0 km/h (0 Bft) 97,87 %
26.02.2021 12:16 10,9 C 17,8 C 20,0 C 78 % 1034,6 hPa 0,0 l/m 2 min 0 min 567 W/m 0,0 km/h (0 Bft) 97,87 %
26.02.2021 12:18 11,0 C 17,8 C 20,0 C 77 % 1034,5 hPa 0,0 l/m 2 min 0 min 584 W/m 0,0 km/h (0 Bft) 97,83 %
26.02.2021 12:20 11,1 C 17,2 C 20,0 C 77 % 1034,6 hPa 0,0 l/m 2 min 0 min 578 W/m 22,5 km/h (4 Bft) 95,74 %
26.02.2021 12:22 11,2 C 17,8 C 20,6 C 76 % 1034,5 hPa 0,0 l/m 2 min 0 min 590 W/m 0,0 km/h (0 Bft) 97,87 %
26.02.2021 12:24 11,3 C 16,1 C 18,4 C 76 % 1034,5 hPa 0,0 l/m 2 min 0 min 536 W/m 0,0 km/h (0 Bft) 97,87 %
26.02.2021 12:26 11,3 C 13,3 C 15,0 C 74 % 1034,5 hPa 0,0 l/m 0 min 0 min 126 W/m 0,0 km/h (0 Bft) 97,87 %
26.02.2021 12:28 11,3 C 12,2 C 12,8 C 73 % 1034,4 hPa 0,0 l/m 0 min 0 min 128 W/m 0,0 km/h (0 Bft) 97,87 %
26.02.2021 12:30 11,2 C 13,9 C 15,6 C 71 % 1034,5 hPa 0,0 l/m 2 min 0 min 352 W/m 6,4 km/h (2 Bft) 97,83 %
26.02.2021 12:32 11,1 C 14,4 C 16,1 C 71 % 1034,4 hPa 0,0 l/m 2 min 0 min 647 W/m 6,4 km/h (2 Bft) 100,00 %
26.02.2021 12:34 11,1 C 12,8 C 13,4 C 72 % 1034,4 hPa 0,0 l/m 2 min 0 min 301 W/m 0,0 km/h (0 Bft) 97,87 %
26.02.2021 12:36 11,1 C 12,8 C 13,4 C 72 % 1034,4 hPa 0,0 l/m 0 min 0 min 139 W/m 6,4 km/h (2 Bft) 97,87 %
26.02.2021 12:38 11,0 C 11,7 C 11,7 C 72 % 1034,3 hPa 0,0 l/m 0 min 0 min 112 W/m 3,2 km/h (1 Bft) 95,74 %
26.02.2021 12:40 11,0 C 10,6 C 10,6 C 72 % 1034,4 hPa 0,0 l/m 0 min 0 min 94 W/m 9,7 km/h (2 Bft) 95,74 %
26.02.2021 12:42 10,9 C 10,6 C 10,0 C 72 % 1034,4 hPa 0,0 l/m 0 min 0 min 108 W/m 0,0 km/h (0 Bft) 95,65 %
26.02.2021 12:44 10,8 C 10,6 C 10,0 C 73 % 1034,4 hPa 0,0 l/m 0 min 0 min 140 W/m 9,7 km/h (2 Bft) 91,49 %
26.02.2021 12:46 10,8 C 13,9 C 13,4 C 72 % 1034,4 hPa 0,0 l/m 2 min 0 min 299 W/m 3,2 km/h (1 Bft) 88,68 %
26.02.2021 12:48 10,8 C 15,0 C 15,6 C 72 % 1034,3 hPa 0,0 l/m 2 min 0 min 599 W/m 6,4 km/h (2 Bft) 93,62 %
26.02.2021 12:50 10,9 C 16,1 C 16,7 C 73 % 1034,3 hPa 0,0 l/m 2 min 0 min 626 W/m 0,0 km/h (0 Bft) 94,44 %
26.02.2021 12:52 10,9 C 13,3 C 13,9 C 71 % 1034,3 hPa 0,0 l/m 2 min 0 min 462 W/m 3,2 km/h (1 Bft) 93,62 %
26.02.2021 12:54 10,9 C 15,0 C 16,1 C 70 % 1034,3 hPa 0,0 l/m 2 min 0 min 352 W/m 3,2 km/h (1 Bft) 93,75 %
26.02.2021 12:56 10,9 C 12,8 C 13,4 C 69 % 1034,3 hPa 0,0 l/m 2 min 0 min 300 W/m 3,2 km/h (1 Bft) 93,62 %
26.02.2021 12:58 10,9 C 12,8 C 11,1 C 66 % 1034,3 hPa 0,0 l/m 0 min 0 min 89 W/m 0,0 km/h (0 Bft) 95,74 %
26.02.2021 13:00 10,9 C 10,6 C 10,0 C 65 % 1034,3 hPa 0,0 l/m 0 min 0 min 85 W/m 0,0 km/h (0 Bft) 93,48 %
26.02.2021 13:02 10,8 C 10,0 C 9,5 C 65 % 1034,3 hPa 0,0 l/m 0 min 0 min 84 W/m 9,7 km/h (2 Bft) 93,75 %
26.02.2021 13:04 10,8 C 12,2 C 11,7 C 65 % 1034,3 hPa 0,0 l/m 0 min 0 min 95 W/m 0,0 km/h (0 Bft) 93,75 %
26.02.2021 13:06 10,7 C 15,0 C 15,0 C 66 % 1034,3 hPa 0,0 l/m 2 min 0 min 614 W/m 3,2 km/h (1 Bft) 91,67 %
26.02.2021 13:08 10,8 C 16,1 C 17,3 C 67 % 1034,3 hPa 0,0 l/m 2 min 0 min 614 W/m 0,0 km/h (0 Bft) 94,34 %
26.02.2021 13:10 10,9 C 16,1 C 17,3 C 66 % 1034,2 hPa 0,0 l/m 2 min 0 min 630 W/m 3,2 km/h (1 Bft) 91,49 %
26.02.2021 13:12 11,0 C 15,0 C 16,1 C 66 % 1034,2 hPa 0,0 l/m 2 min 0 min 633 W/m 9,7 km/h (2 Bft) 91,49 %
26.02.2021 13:14 11,0 C 15,0 C 16,1 C 64 % 1034,2 hPa 0,0 l/m 2 min 0 min 616 W/m 6,4 km/h (2 Bft) 97,37 %
26.02.2021 13:16 11,1 C 16,1 C 17,8 C 64 % 1034,2 hPa 0,0 l/m 2 min 0 min 601 W/m 0,0 km/h (0 Bft) 93,75 %
26.02.2021 13:18 11,1 C 16,7 C 17,8 C 64 % 1034,2 hPa 0,0 l/m 2 min 0 min 587 W/m 6,4 km/h (2 Bft) 97,87 %
26.02.2021 13:20 11,3 C 16,1 C 17,8 C 63 % 1034,3 hPa 0,0 l/m 2 min 0 min 585 W/m 9,7 km/h (2 Bft) 97,92 %
26.02.2021 13:22 11,3 C 16,7 C 17,8 C 63 % 1034,2 hPa 0,0 l/m 2 min 0 min 587 W/m 3,2 km/h (1 Bft) 97,83 %
26.02.2021 13:24 11,4 C 16,7 C 17,8 C 63 % 1034,3 hPa 0,0 l/m 2 min 0 min 590 W/m 3,2 km/h (1 Bft) 97,92 %
26.02.2021 13:26 11,5 C 17,2 C 17,8 C 63 % 1034,2 hPa 0,0 l/m 2 min 0 min 599 W/m 0,0 km/h (0 Bft) 100,00 %
26.02.2021 13:28 11,6 C 16,7 C 18,4 C 62 % 1034,2 hPa 0,0 l/m 2 min 0 min 609 W/m 0,0 km/h (0 Bft) 100,00 %
26.02.2021 13:30 11,6 C 16,7 C 17,8 C 62 % 1034,3 hPa 0,0 l/m 2 min 0 min 614 W/m 0,0 km/h (0 Bft) 100,00 %
26.02.2021 13:35 11,8 C 17,8 C 18,9 C 62 % 1034,2 hPa 0,0 l/m 5 min 0 min 637 W/m 3,2 km/h (1 Bft) 100,00 %
26.02.2021 13:40 12,0 C 16,7 C 18,4 C 61 % 1034,1 hPa 0,0 l/m 5 min 0 min 679 W/m 6,4 km/h (2 Bft) 100,00 %
26.02.2021 13:42 12,0 C 16,7 C 18,9 C 63 % 1034,1 hPa 0,0 l/m 2 min 0 min 689 W/m 0,0 km/h (0 Bft) 96,97 %
26.02.2021 13:44 12,1 C 14,4 C 15,6 C 62 % 1034,1 hPa 0,0 l/m 2 min 0 min 340 W/m 12,9 km/h (3 Bft) 100,00 %
26.02.2021 13:46 12,1 C 14,4 C 15,6 C 63 % 1034,1 hPa 0,0 l/m 0 min 0 min 218 W/m 3,2 km/h (1 Bft) 100,00 %
26.02.2021 13:48 12,1 C 13,3 C 13,4 C 65 % 1034,1 hPa 0,0 l/m 0 min 0 min 109 W/m 0,0 km/h (0 Bft) 100,00 %
26.02.2021 13:50 12,1 C 12,2 C 12,3 C 65 % 1034,1 hPa 0,0 l/m 0 min 0 min 88 W/m 3,2 km/h (1 Bft) 100,00 %
26.02.2021 13:52 12,0 C 11,1 C 11,1 C 63 % 1034,1 hPa 0,0 l/m 0 min 0 min 83 W/m 6,4 km/h (2 Bft) 100,00 %
26.02.2021 13:54 11,9 C 10,6 C 10,0 C 63 % 1034,1 hPa 0,0 l/m 0 min 0 min 81 W/m 3,2 km/h (1 Bft) 100,00 %
26.02.2021 13:56 11,7 C 10,6 C 9,5 C 63 % 1034,1 hPa 0,0 l/m 0 min 0 min 81 W/m 0,0 km/h (0 Bft) 100,00 %
26.02.2021 13:58 11,6 C 10,0 C 8,9 C 63 % 1034,1 hPa 0,0 l/m 0 min 0 min 78 W/m 0,0 km/h (0 Bft) 100,00 %
26.02.2021 14:00 11,4 C 10,0 C 8,4 C 62 % 1034,1 hPa 0,0 l/m 0 min 0 min 81 W/m 12,9 km/h (3 Bft) 100,00 %
26.02.2021 14:02 11,3 C 11,1 C 10,0 C 63 % 1034,1 hPa 0,0 l/m 0 min 0 min 94 W/m 3,2 km/h (1 Bft) 100,00 %
26.02.2021 14:04 11,2 C 12,2 C 11,7 C 64 % 1034,1 hPa 0,0 l/m 0 min 0 min 98 W/m 0,0 km/h (0 Bft) 100,00 %
26.02.2021 14:06 11,1 C 12,2 C 11,7 C 65 % 1034,1 hPa 0,0 l/m 0 min 0 min 112 W/m 0,0 km/h (0 Bft) 100,00 %
26.02.2021 14:08 11,0 C 11,1 C 10,6 C 64 % 1034,1 hPa 0,0 l/m 0 min 0 min 94 W/m 9,7 km/h (2 Bft) 100,00 %
26.02.2021 14:10 11,0 C 11,7 C 10,6 C 64 % 1034,1 hPa 0,0 l/m 0 min 0 min 84 W/m 3,2 km/h (1 Bft) 100,00 %
26.02.2021 14:12 10,9 C 12,8 C 12,8 C 65 % 1034,1 hPa 0,0 l/m 0 min 0 min 130 W/m 6,4 km/h (2 Bft) 100,00 %
26.02.2021 14:14 10,9 C 15,0 C 15,6 C 66 % 1034,1 hPa 0,0 l/m 2 min 0 min 438 W/m 0,0 km/h (0 Bft) 100,00 %
26.02.2021 14:16 11,0 C 15,6 C 17,3 C 65 % 1034,1 hPa 0,0 l/m 2 min 0 min 546 W/m 0,0 km/h (0 Bft) 100,00 %
26.02.2021 14:18 11,0 C 15,0 C 17,3 C 64 % 1034,1 hPa 0,0 l/m 2 min 0 min 494 W/m 3,2 km/h (1 Bft) 100,00 %
26.02.2021 14:20 11,1 C 15,6 C 16,7 C 65 % 1034,0 hPa 0,0 l/m 2 min 0 min 345 W/m 0,0 km/h (0 Bft) 100,00 %
26.02.2021 14:22 11,2 C 13,3 C 14,5 C 65 % 1034,0 hPa 0,0 l/m 0 min 0 min 209 W/m 3,2 km/h (1 Bft) 100,00 %
26.02.2021 14:24 11,3 C 12,2 C 12,3 C 64 % 1034,0 hPa 0,0 l/m 0 min 0 min 64 W/m 6,4 km/h (2 Bft) 100,00 %
26.02.2021 14:26 11,2 C 11,1 C 10,6 C 63 % 1034,1 hPa 0,0 l/m 0 min 0 min 58 W/m 3,2 km/h (1 Bft) 100,00 %
26.02.2021 14:28 11,1 C 10,6 C 10,0 C 63 % 1034,1 hPa 0,0 l/m 0 min 0 min 57 W/m 0,0 km/h (0 Bft) 100,00 %
26.02.2021 14:30 11,1 C 11,1 C 10,0 C 63 % 1034,0 hPa 0,0 l/m 0 min 0 min 69 W/m 0,0 km/h (0 Bft) 100,00 %
26.02.2021 14:32 11,1 C 13,3 C 12,8 C 63 % 1034,0 hPa 0,0 l/m 0 min 0 min 72 W/m 3,2 km/h (1 Bft) 100,00 %
26.02.2021 14:34 11,1 C 15,6 C 15,6 C 63 % 1034,0 hPa 0,0 l/m 2 min 0 min 311 W/m 3,2 km/h (1 Bft) 100,00 %
26.02.2021 14:36 11,1 C 15,6 C 17,3 C 64 % 1034,0 hPa 0,0 l/m 2 min 0 min 541 W/m 0,0 km/h (0 Bft) 100,00 %
26.02.2021 14:38 11,3 C 17,2 C 19,5 C 64 % 1034,0 hPa 0,0 l/m 2 min 0 min 554 W/m 0,0 km/h (0 Bft) 100,00 %
26.02.2021 14:40 11,4 C 17,2 C 19,5 C 64 % 1034,0 hPa 0,0 l/m 2 min 0 min 555 W/m 0,0 km/h (0 Bft) 100,00 %
26.02.2021 14:42 11,5 C 17,8 C 20,0 C 65 % 1034,1 hPa 0,0 l/m 2 min 0 min 538 W/m 0,0 km/h (0 Bft) 100,00 %
26.02.2021 14:44 11,8 C 18,3 C 20,6 C 64 % 1034,0 hPa 0,0 l/m 2 min 0 min 535 W/m 3,2 km/h (1 Bft) 100,00 %
26.02.2021 14:46 11,9 C 17,8 C 21,1 C 64 % 1034,1 hPa 0,0 l/m 2 min 0 min 538 W/m 6,4 km/h (2 Bft) 100,00 %
26.02.2021 14:48 12,0 C 17,2 C 21,7 C 63 % 1034,1 hPa 0,0 l/m 2 min 0 min 537 W/m 6,4 km/h (2 Bft) 97,92 %
26.02.2021 14:50 12,1 C 17,8 C 21,7 C 63 % 1034,1 hPa 0,0 l/m 2 min 0 min 532 W/m 3,2 km/h (1 Bft) 97,87 %
26.02.2021 14:52 12,3 C 18,3 C 21,7 C 63 % 1034,1 hPa 0,0 l/m 2 min 0 min 521 W/m 3,2 km/h (1 Bft) 97,87 %
26.02.2021 14:54 12,4 C 16,7 C 20,0 C 62 % 1034,1 hPa 0,0 l/m 2 min 0 min 513 W/m 16,1 km/h (3 Bft) 100,00 %
26.02.2021 14:56 12,4 C 14,4 C 17,3 C 62 % 1034,1 hPa 0,0 l/m 2 min 0 min 349 W/m 0,0 km/h (0 Bft) 97,92 %
26.02.2021 14:58 12,5 C 15,0 C 17,3 C 61 % 1034,1 hPa 0,0 l/m 2 min 0 min 284 W/m 12,9 km/h (3 Bft) 97,87 %
26.02.2021 15:00 12,5 C 13,9 C 15,0 C 62 % 1034,1 hPa 0,0 l/m 2 min 0 min 325 W/m 3,2 km/h (1 Bft) 97,87 %
26.02.2021 15:02 12,4 C 12,2 C 12,8 C 61 % 1034,2 hPa 0,0 l/m 0 min 0 min 67 W/m 16,1 km/h (3 Bft) 95,74 %
26.02.2021 15:04 12,3 C 12,2 C 12,3 C 61 % 1034,1 hPa 0,0 l/m 0 min 0 min 78 W/m 3,2 km/h (1 Bft) 97,83 %
26.02.2021 15:06 12,3 C 14,4 C 15,0 C 62 % 1034,1 hPa 0,0 l/m 2 min 0 min 266 W/m 0,0 km/h (0 Bft) 95,74 %
26.02.2021 15:08 12,2 C 15,0 C 16,7 C 62 % 1034,1 hPa 0,0 l/m 2 min 0 min 445 W/m 0,0 km/h (0 Bft) 97,87 %
26.02.2021 15:10 12,1 C 16,1 C 18,4 C 62 % 1034,1 hPa 0,0 l/m 2 min 0 min 456 W/m 0,0 km/h (0 Bft) 97,87 %
26.02.2021 15:12 12,2 C 16,7 C 19,5 C 63 % 1034,1 hPa 0,0 l/m 2 min 0 min 445 W/m 0,0 km/h (0 Bft) 95,74 %
26.02.2021 15:14 12,3 C 16,7 C 20,0 C 63 % 1034,1 hPa 0,0 l/m 2 min 0 min 444 W/m 0,0 km/h (0 Bft) 95,74 %
26.02.2021 15:16 12,3 C 15,6 C 18,9 C 63 % 1034,1 hPa 0,0 l/m 2 min 0 min 394 W/m 12,9 km/h (3 Bft) 95,12 %
26.02.2021 15:18 12,3 C 13,9 C 15,6 C 62 % 1034,1 hPa 0,0 l/m 0 min 0 min 148 W/m 0,0 km/h (0 Bft) 95,83 %
26.02.2021 15:20 12,3 C 12,8 C 13,4 C 62 % 1034,1 hPa 0,0 l/m 0 min 0 min 81 W/m 19,3 km/h (3 Bft) 95,74 %
26.02.2021 15:22 12,2 C 12,2 C 11,7 C 62 % 1034,1 hPa 0,0 l/m 0 min 0 min 81 W/m 3,2 km/h (1 Bft) 97,87 %
26.02.2021 15:24 12,1 C 11,1 C 10,6 C 62 % 1034,1 hPa 0,0 l/m 0 min 0 min 73 W/m 0,0 km/h (0 Bft) 94,00 %
26.02.2021 15:26 12,0 C 11,7 C 10,6 C 62 % 1034,1 hPa 0,0 l/m 0 min 0 min 119 W/m 0,0 km/h (0 Bft) 93,75 %
26.02.2021 15:28 12,0 C 13,9 C 13,4 C 62 % 1034,1 hPa 0,0 l/m 2 min 0 min 271 W/m 3,2 km/h (1 Bft) 97,83 %
26.02.2021 15:30 11,9 C 13,3 C 12,8 C 63 % 1034,1 hPa 0,0 l/m 2 min 0 min 263 W/m 0,0 km/h (0 Bft) 95,74 %
26.02.2021 15:32 11,9 C 12,2 C 11,7 C 63 % 1034,1 hPa 0,0 l/m 0 min 0 min 74 W/m 3,2 km/h (1 Bft) 97,87 %
26.02.2021 15:34 11,9 C 11,7 C 10,6 C 63 % 1034,1 hPa 0,0 l/m 0 min 0 min 56 W/m 6,4 km/h (2 Bft) 97,87 %
26.02.2021 15:36 11,8 C 10,6 C 9,5 C 62 % 1034,1 hPa 0,0 l/m 0 min 0 min 49 W/m 0,0 km/h (0 Bft) 97,87 %
26.02.2021 15:38 11,6 C 10,6 C 8,9 C 63 % 1034,1 hPa 0,0 l/m 0 min 0 min 52 W/m 0,0 km/h (0 Bft) 97,87 %
26.02.2021 15:40 11,5 C 10,0 C 8,9 C 63 % 1034,1 hPa 0,0 l/m 0 min 0 min 56 W/m 6,4 km/h (2 Bft) 97,14 %
26.02.2021 15:42 11,4 C 10,0 C 8,4 C 63 % 1034,1 hPa 0,0 l/m 0 min 0 min 57 W/m 0,0 km/h (0 Bft) 98,11 %
26.02.2021 15:44 11,3 C 10,0 C 8,4 C 64 % 1034,2 hPa 0,0 l/m 0 min 0 min 58 W/m 3,2 km/h (1 Bft) 95,74 %
26.02.2021 15:46 11,2 C 10,0 C 8,4 C 64 % 1034,2 hPa 0,0 l/m 0 min 0 min 59 W/m 0,0 km/h (0 Bft) 97,83 %
26.02.2021 15:48 11,1 C 10,0 C 8,4 C 64 % 1034,2 hPa 0,0 l/m 0 min 0 min 58 W/m 3,2 km/h (1 Bft) 97,87 %
26.02.2021 15:50 11,0 C 10,6 C 8,9 C 64 % 1034,2 hPa 0,0 l/m 0 min 0 min 59 W/m 0,0 km/h (0 Bft) 97,87 %
26.02.2021 15:52 11,0 C 12,8 C 12,3 C 65 % 1034,2 hPa 0,0 l/m 2 min 0 min 255 W/m 0,0 km/h (0 Bft) 95,83 %
26.02.2021 15:54 11,0 C 13,9 C 14,5 C 66 % 1034,2 hPa 0,0 l/m 2 min 0 min 345 W/m 0,0 km/h (0 Bft) 97,87 %
26.02.2021 15:56 11,0 C 15,0 C 16,1 C 66 % 1034,2 hPa 0,0 l/m 2 min 0 min 334 W/m 0,0 km/h (0 Bft) 97,87 %
26.02.2021 15:58 11,0 C 15,6 C 16,7 C 66 % 1034,1 hPa 0,0 l/m 2 min 0 min 323 W/m 0,0 km/h (0 Bft) 100,00 %
26.02.2021 16:00 11,1 C 15,6 C 17,3 C 66 % 1034,1 hPa 0,0 l/m 2 min 0 min 312 W/m 0,0 km/h (0 Bft) 100,00 %
26.02.2021 16:02 11,2 C 15,6 C 16,7 C 66 % 1034,2 hPa 0,0 l/m 2 min 0 min 323 W/m 0,0 km/h (0 Bft) 100,00 %
26.02.2021 16:04 11,3 C 15,6 C 16,7 C 66 % 1034,1 hPa 0,0 l/m 2 min 0 min 312 W/m 6,4 km/h (2 Bft) 97,92 %
26.02.2021 16:06 11,4 C 15,0 C 16,7 C 65 % 1034,1 hPa 0,0 l/m 2 min 0 min 295 W/m 0,0 km/h (0 Bft) 100,00 %
26.02.2021 16:08 11,5 C 13,9 C 15,6 C 64 % 1034,2 hPa 0,0 l/m 2 min 0 min 261 W/m 6,4 km/h (2 Bft) 100,00 %
26.02.2021 16:10 11,5 C 14,4 C 15,6 C 64 % 1034,2 hPa 0,0 l/m 2 min 0 min 281 W/m 3,2 km/h (1 Bft) 100,00 %
26.02.2021 16:12 11,6 C 13,9 C 15,6 C 64 % 1034,2 hPa 0,0 l/m 2 min 0 min 278 W/m 12,9 km/h (3 Bft) 100,00 %
26.02.2021 16:14 11,6 C 13,9 C 15,0 C 64 % 1034,3 hPa 0,0 l/m 2 min 0 min 288 W/m 22,5 km/h (4 Bft) 100,00 %
26.02.2021 16:16 11,6 C 12,8 C 13,4 C 64 % 1034,3 hPa 0,0 l/m 2 min 0 min 230 W/m 3,2 km/h (1 Bft) 100,00 %
26.02.2021 16:18 11,6 C 11,7 C 11,7 C 64 % 1034,3 hPa 0,0 l/m 0 min 0 min 67 W/m 6,4 km/h (2 Bft) 100,00 %
26.02.2021 16:20 11,5 C 12,2 C 11,7 C 63 % 1034,3 hPa 0,0 l/m 0 min 0 min 117 W/m 3,2 km/h (1 Bft) 100,00 %
26.02.2021 16:22 11,5 C 13,3 C 13,9 C 63 % 1034,3 hPa 0,0 l/m 2 min 0 min 263 W/m 0,0 km/h (0 Bft) 100,00 %
26.02.2021 16:24 11,5 C 13,3 C 13,9 C 62 % 1034,3 hPa 0,0 l/m 2 min 0 min 260 W/m 3,2 km/h (1 Bft) 100,00 %
26.02.2021 16:26 11,4 C 11,7 C 12,3 C 62 % 1034,3 hPa 0,0 l/m 2 min 0 min 143 W/m 3,2 km/h (1 Bft) 95,74 %
26.02.2021 16:28 11,4 C 11,1 C 10,6 C 62 % 1034,4 hPa 0,0 l/m 0 min 0 min 42 W/m 3,2 km/h (1 Bft) 100,00 %
26.02.2021 16:30 11,3 C 10,6 C 9,5 C 62 % 1034,4 hPa 0,0 l/m 0 min 0 min 42 W/m 0,0 km/h (0 Bft) 100,00 %
26.02.2021 16:32 11,2 C 10,6 C 9,5 C 62 % 1034,4 hPa 0,0 l/m 0 min 0 min 50 W/m 3,2 km/h (1 Bft) 100,00 %
26.02.2021 16:34 11,1 C 11,7 C 11,7 C 63 % 1034,4 hPa 0,0 l/m 2 min 0 min 177 W/m 0,0 km/h (0 Bft) 93,75 %
26.02.2021 16:36 11,1 C 11,7 C 11,1 C 62 % 1034,4 hPa 0,0 l/m 2 min 0 min 223 W/m 6,4 km/h (2 Bft) 100,00 %
26.02.2021 16:38 11,0 C 11,7 C 11,7 C 63 % 1034,4 hPa 0,0 l/m 2 min 0 min 215 W/m 0,0 km/h (0 Bft) 97,87 %
26.02.2021 16:40 11,0 C 10,6 C 10,6 C 63 % 1034,5 hPa 0,0 l/m 2 min 0 min 133 W/m 3,2 km/h (1 Bft) 100,00 %
26.02.2021 16:42 10,9 C 10,0 C 9,5 C 63 % 1034,5 hPa 0,0 l/m 0 min 0 min 47 W/m 0,0 km/h (0 Bft) 97,87 %
26.02.2021 16:44 10,9 C 10,0 C 8,9 C 63 % 1034,5 hPa 0,0 l/m 0 min 0 min 37 W/m 3,2 km/h (1 Bft) 97,87 %
26.02.2021 16:46 10,8 C 10,0 C 8,4 C 63 % 1034,5 hPa 0,0 l/m 0 min 0 min 39 W/m 0,0 km/h (0 Bft) 100,00 %
26.02.2021 16:48 10,8 C 9,4 C 7,8 C 64 % 1034,5 hPa 0,0 l/m 0 min 0 min 39 W/m 0,0 km/h (0 Bft) 97,87 %
26.02.2021 16:50 10,7 C 9,4 C 7,8 C 64 % 1034,4 hPa 0,0 l/m 0 min 0 min 39 W/m 3,2 km/h (1 Bft) 95,74 %
26.02.2021 16:52 10,6 C 9,4 C 7,3 C 64 % 1034,5 hPa 0,0 l/m 0 min 0 min 39 W/m 0,0 km/h (0 Bft) 55,32 %
26.02.2021 16:54 10,5 C 9,4 C 7,3 C 65 % 1034,5 hPa 0,0 l/m 0 min 0 min 41 W/m 0,0 km/h (0 Bft) 97,06 %
26.02.2021 16:56 10,5 C 9,4 C 7,3 C 65 % 1034,6 hPa 0,0 l/m 0 min 0 min 44 W/m 9,7 km/h (2 Bft) 97,83 %
26.02.2021 16:58 10,4 C 9,4 C 7,3 C 65 % 1034,6 hPa 0,0 l/m 0 min 0 min 46 W/m 0,0 km/h (0 Bft) 97,87 %
26.02.2021 17:00 10,3 C 9,4 C 6,7 C 66 % 1034,5 hPa 0,0 l/m 0 min 0 min 47 W/m 3,2 km/h (1 Bft) 98,11 %
26.02.2021 17:02 10,3 C 9,4 C 7,3 C 66 % 1034,6 hPa 0,0 l/m 0 min 0 min 50 W/m 0,0 km/h (0 Bft) 97,92 %
26.02.2021 17:04 10,1 C 9,4 C 7,3 C 65 % 1034,6 hPa 0,0 l/m 0 min 0 min 53 W/m 0,0 km/h (0 Bft) 95,83 %
26.02.2021 17:06 10,1 C 9,4 C 7,3 C 66 % 1034,7 hPa 0,0 l/m 0 min 0 min 59 W/m 0,0 km/h (0 Bft) 97,87 %
26.02.2021 17:08 10,1 C 9,4 C 7,3 C 66 % 1034,7 hPa 0,0 l/m 2 min 0 min 77 W/m 0,0 km/h (0 Bft) 97,87 %
26.02.2021 17:10 10,0 C 9,4 C 7,3 C 66 % 1034,7 hPa 0,0 l/m 0 min 0 min 66 W/m 0,0 km/h (0 Bft) 97,87 %
26.02.2021 17:12 10,0 C 9,4 C 7,3 C 66 % 1034,7 hPa 0,0 l/m 2 min 0 min 102 W/m 0,0 km/h (0 Bft) 95,74 %
26.02.2021 17:14 10,0 C 9,4 C 7,3 C 66 % 1034,7 hPa 0,0 l/m 2 min 0 min 66 W/m 0,0 km/h (0 Bft) 97,87 %
26.02.2021 17:16 10,0 C 9,4 C 7,3 C 66 % 1034,7 hPa 0,0 l/m 2 min 0 min 91 W/m 16,1 km/h (3 Bft) 95,83 %
26.02.2021 17:18 10,0 C 10,0 C 7,3 C 65 % 1034,6 hPa 0,0 l/m 2 min 0 min 102 W/m 9,7 km/h (2 Bft) 97,87 %
26.02.2021 17:20 10,0 C 10,0 C 7,3 C 65 % 1034,7 hPa 0,0 l/m 2 min 0 min 72 W/m 9,7 km/h (2 Bft) 93,48 %
26.02.2021 17:22 10,0 C 10,0 C 7,3 C 65 % 1034,7 hPa 0,0 l/m 2 min 0 min 67 W/m 3,2 km/h (1 Bft) 95,74 %
26.02.2021 17:24 10,0 C 10,0 C 7,3 C 65 % 1034,6 hPa 0,0 l/m 2 min 0 min 65 W/m 0,0 km/h (0 Bft) 93,62 %
26.02.2021 17:26 10,0 C 9,4 C 7,3 C 65 % 1034,6 hPa 0,0 l/m 2 min 0 min 58 W/m 0,0 km/h (0 Bft) 93,62 %
26.02.2021 17:28 10,0 C 9,4 C 7,3 C 65 % 1034,6 hPa 0,0 l/m 2 min 0 min 49 W/m 16,1 km/h (3 Bft) 95,83 %
26.02.2021 17:30 10,0 C 9,4 C 7,3 C 65 % 1034,7 hPa 0,0 l/m 0 min 0 min 41 W/m 3,2 km/h (1 Bft) 95,74 %
26.02.2021 17:32 9,9 C 9,4 C 6,7 C 65 % 1034,7 hPa 0,0 l/m 0 min 0 min 35 W/m 3,2 km/h (1 Bft) 93,62 %
26.02.2021 17:34 9,9 C 9,4 C 6,7 C 65 % 1034,7 hPa 0,0 l/m 0 min 0 min 28 W/m 0,0 km/h (0 Bft) 95,74 %
26.02.2021 17:36 9,9 C 8,9 C 6,7 C 65 % 1034,7 hPa 0,0 l/m 0 min 0 min 22 W/m 0,0 km/h (0 Bft) 95,74 %
26.02.2021 17:38 9,9 C 8,9 C 6,1 C 66 % 1034,7 hPa 0,0 l/m 0 min 0 min 18 W/m 3,2 km/h (1 Bft) 95,74 %
26.02.2021 17:40 9,9 C 8,9 C 6,1 C 66 % 1034,8 hPa 0,0 l/m 0 min 0 min 14 W/m 0,0 km/h (0 Bft) 97,83 %
26.02.2021 17:42 9,8 C 8,3 C 6,1 C 66 % 1034,8 hPa 0,0 l/m 0 min 0 min 13 W/m 3,2 km/h (1 Bft) 97,22 %
26.02.2021 17:44 9,8 C 8,3 C 6,1 C 66 % 1034,8 hPa 0,0 l/m 0 min 0 min 12 W/m 3,2 km/h (1 Bft) 97,83 %
26.02.2021 17:46 9,7 C 8,3 C 6,1 C 66 % 1034,8 hPa 0,0 l/m 0 min 0 min 11 W/m 0,0 km/h (0 Bft) 95,74 %
26.02.2021 17:48 9,6 C 8,3 C 6,1 C 66 % 1034,8 hPa 0,0 l/m 0 min 0 min 11 W/m 0,0 km/h (0 Bft) 98,11 %
26.02.2021 17:50 9,5 C 8,3 C 6,1 C 66 % 1034,8 hPa 0,0 l/m 0 min 0 min 11 W/m 0,0 km/h (0 Bft) 97,92 %
26.02.2021 17:52 9,5 C 8,3 C 6,1 C 66 % 1034,9 hPa 0,0 l/m 0 min 0 min 11 W/m 3,2 km/h (1 Bft) 97,87 %
26.02.2021 17:54 9,5 C 8,3 C 6,1 C 67 % 1034,9 hPa 0,0 l/m 0 min 0 min 9 W/m 0,0 km/h (0 Bft) 97,87 %
26.02.2021 17:56 9,4 C 8,3 C 5,6 C 67 % 1034,9 hPa 0,0 l/m 0 min 0 min 8 W/m 0,0 km/h (0 Bft) 97,87 %
26.02.2021 17:58 9,4 C 8,3 C 6,1 C 67 % 1034,9 hPa 0,0 l/m 0 min 0 min 7 W/m 3,2 km/h (1 Bft) 97,87 %
26.02.2021 18:00 9,4 C 8,3 C 6,1 C 67 % 1034,9 hPa 0,0 l/m 0 min 0 min 7 W/m 0,0 km/h (0 Bft) 95,83 %
26.02.2021 18:02 9,3 C 8,3 C 6,1 C 67 % 1035,0 hPa 0,0 l/m 0 min 0 min 7 W/m 0,0 km/h (0 Bft) 97,87 %
26.02.2021 18:04 9,3 C 8,3 C 6,1 C 67 % 1035,1 hPa 0,0 l/m 0 min 0 min 6 W/m 0,0 km/h (0 Bft) 97,87 %
26.02.2021 18:08 9,2 C 8,3 C 5,6 C 67 % 1035,0 hPa 0,0 l/m 0 min 0 min 4 W/m 0,0 km/h (0 Bft) 98,92 %
26.02.2021 18:10 9,2 C 8,3 C 5,6 C 68 % 1035,0 hPa 0,0 l/m 0 min 0 min 0 W/m 3,2 km/h (1 Bft) 100,00 %
26.02.2021 18:12 9,1 C 8,3 C 5,6 C 68 % 1035,0 hPa 0,0 l/m 0 min 0 min 0 W/m 0,0 km/h (0 Bft) 100,00 %
26.02.2021 18:14 9,1 C 7,8 C 5,6 C 68 % 1035,0 hPa 0,0 l/m 0 min 0 min 0 W/m 0,0 km/h (0 Bft) 100,00 %
26.02.2021 18:16 9,1 C 7,8 C 5,6 C 68 % 1035,1 hPa 0,0 l/m 0 min 0 min 0 W/m 0,0 km/h (0 Bft) 100,00 %
26.02.2021 18:18 9,0 C 7,8 C 5,6 C 68 % 1035,0 hPa 0,0 l/m 0 min 0 min 0 W/m 0,0 km/h (0 Bft) 100,00 %
26.02.2021 18:20 9,0 C 7,8 C 5,0 C 68 % 1035,1 hPa 0,0 l/m 0 min 0 min 0 W/m 0,0 km/h (0 Bft) 95,74 %
26.02.2021 18:22 9,0 C 7,8 C 5,0 C 68 % 1035,2 hPa 0,0 l/m 0 min 0 min 0 W/m 0,0 km/h (0 Bft) 97,87 %
26.02.2021 18:24 8,9 C 7,8 C 5,0 C 69 % 1035,2 hPa 0,0 l/m 0 min 0 min 0 W/m 0,0 km/h (0 Bft) 97,87 %
26.02.2021 18:26 8,9 C 7,8 C 5,0 C 69 % 1035,2 hPa 0,0 l/m 0 min 0 min 0 W/m 0,0 km/h (0 Bft) 97,87 %
26.02.2021 18:28 8,8 C 7,8 C 5,0 C 70 % 1035,2 hPa 0,0 l/m 0 min 0 min 0 W/m 0,0 km/h (0 Bft) 97,83 %
26.02.2021 18:30 8,8 C 7,8 C 5,0 C 70 % 1035,2 hPa 0,0 l/m 0 min 0 min 0 W/m 0,0 km/h (0 Bft) 97,22 %
26.02.2021 18:32 8,8 C 7,2 C 5,0 C 70 % 1035,2 hPa 0,0 l/m 0 min 0 min 0 W/m 0,0 km/h (0 Bft) 97,83 %
26.02.2021 18:34 8,8 C 7,2 C 5,0 C 71 % 1035,2 hPa 0,0 l/m 0 min 0 min 0 W/m 0,0 km/h (0 Bft) 97,87 %
26.02.2021 18:36 8,7 C 7,2 C 4,5 C 71 % 1035,3 hPa 0,0 l/m 0 min 0 min 0 W/m 0,0 km/h (0 Bft) 97,87 %
26.02.2021 18:38 8,6 C 7,2 C 4,5 C 71 % 1035,3 hPa 0,0 l/m 0 min 0 min 0 W/m 12,9 km/h (3 Bft) 98,11 %
26.02.2021 18:40 8,6 C 7,2 C 5,0 C 71 % 1035,4 hPa 0,0 l/m 0 min 0 min 0 W/m 0,0 km/h (0 Bft) 97,87 %
26.02.2021 18:42 8,6 C 7,2 C 5,0 C 71 % 1035,5 hPa 0,0 l/m 0 min 0 min 0 W/m 0,0 km/h (0 Bft) 97,87 %
26.02.2021 18:44 8,5 C 7,2 C 5,0 C 72 % 1035,5 hPa 0,0 l/m 0 min 0 min 0 W/m 0,0 km/h (0 Bft) 97,87 %
26.02.2021 18:46 8,5 C 7,2 C 5,0 C 72 % 1035,6 hPa 0,0 l/m 0 min 0 min 0 W/m 0,0 km/h (0 Bft) 97,87 %
26.02.2021 18:48 8,5 C 7,2 C 4,5 C 72 % 1035,5 hPa 0,0 l/m 0 min 0 min 0 W/m 0,0 km/h (0 Bft) 97,92 %
26.02.2021 18:50 8,5 C 7,2 C 4,5 C 72 % 1035,5 hPa 0,0 l/m 0 min 0 min 0 W/m 0,0 km/h (0 Bft) 97,87 %
26.02.2021 18:52 8,4 C 7,2 C 5,0 C 72 % 1035,6 hPa 0,0 l/m 0 min 0 min 0 W/m 3,2 km/h (1 Bft) 97,87 %
26.02.2021 18:54 8,4 C 7,2 C 4,5 C 72 % 1035,6 hPa 0,0 l/m 0 min 0 min 0 W/m 6,4 km/h (2 Bft) 97,83 %
26.02.2021 18:56 8,4 C 7,2 C 4,5 C 73 % 1035,6 hPa 0,0 l/m 0 min 0 min 0 W/m 0,0 km/h (0 Bft) 97,87 %
26.02.2021 18:58 8,4 C 7,2 C 4,5 C 73 % 1035,7 hPa 0,0 l/m 0 min 0 min 0 W/m 3,2 km/h (1 Bft) 95,74 %
26.02.2021 19:00 8,4 C 7,2 C 4,5 C 73 % 1035,8 hPa 0,0 l/m 0 min 0 min 0 W/m 0,0 km/h (0 Bft) 97,87 %
26.02.2021 19:02 8,3 C 7,2 C 4,5 C 73 % 1035,8 hPa 0,0 l/m 0 min 0 min 0 W/m 0,0 km/h (0 Bft) 97,92 %
26.02.2021 19:04 8,3 C 7,2 C 4,5 C 73 % 1035,8 hPa 0,0 l/m 0 min 0 min 0 W/m 0,0 km/h (0 Bft) 97,83 %
26.02.2021 19:06 8,2 C 7,2 C 4,5 C 73 % 1035,8 hPa 0,0 l/m 0 min 0 min 0 W/m 0,0 km/h (0 Bft) 97,87 %
26.02.2021 19:08 8,1 C 6,7 C 4,5 C 74 % 1035,9 hPa 0,0 l/m 0 min 0 min 0 W/m 0,0 km/h (0 Bft) 97,87 %
26.02.2021 19:10 8,1 C 6,7 C 4,5 C 74 % 1035,9 hPa 0,0 l/m 0 min 0 min 0 W/m 3,2 km/h (1 Bft) 97,92 %
26.02.2021 19:12 8,1 C 6,7 C 4,5 C 74 % 1035,9 hPa 0,0 l/m 0 min 0 min 0 W/m 0,0 km/h (0 Bft) 97,87 %
26.02.2021 19:14 8,0 C 6,7 C 4,5 C 74 % 1035,9 hPa 0,0 l/m 0 min 0 min 0 W/m 0,0 km/h (0 Bft) 97,87 %
26.02.2021 19:16 8,0 C 6,7 C 4,5 C 74 % 1035,9 hPa 0,0 l/m 0 min 0 min 0 W/m 3,2 km/h (1 Bft) 97,87 %
26.02.2021 19:18 7,9 C 6,7 C 4,5 C 74 % 1036,0 hPa 0,0 l/m 0 min 0 min 0 W/m 0,0 km/h (0 Bft) 97,92 %
26.02.2021 19:20 7,9 C 6,7 C 3,9 C 74 % 1036,1 hPa 0,0 l/m 0 min 0 min 0 W/m 0,0 km/h (0 Bft) 95,74 %
26.02.2021 19:22 7,9 C 6,7 C 3,9 C 74 % 1036,1 hPa 0,0 l/m 0 min 0 min 0 W/m 0,0 km/h (0 Bft) 97,87 %
26.02.2021 19:24 7,8 C 6,7 C 3,9 C 74 % 1036,1 hPa 0,0 l/m 0 min 0 min 0 W/m 0,0 km/h (0 Bft) 95,74 %
26.02.2021 19:26 7,8 C 6,7 C 3,9 C 75 % 1036,0 hPa 0,0 l/m 0 min 0 min 0 W/m 0,0 km/h (0 Bft) 97,83 %
26.02.2021 19:28 7,8 C 6,7 C 3,9 C 75 % 1036,0 hPa 0,0 l/m 0 min 0 min 0 W/m 0,0 km/h (0 Bft) 95,74 %
26.02.2021 19:30 7,8 C 6,7 C 3,9 C 75 % 1036,1 hPa 0,0 l/m 0 min 0 min 0 W/m 0,0 km/h (0 Bft) 91,43 %
26.02.2021 19:32 7,7 C 6,1 C 3,9 C 75 % 1036,1 hPa 0,0 l/m 0 min 0 min 0 W/m 0,0 km/h (0 Bft) 95,74 %
26.02.2021 19:34 7,7 C 6,1 C 3,9 C 75 % 1036,1 hPa 0,0 l/m 0 min 0 min 0 W/m 3,2 km/h (1 Bft) 96,23 %
26.02.2021 19:36 7,6 C 6,1 C 3,9 C 75 % 1036,1 hPa 0,0 l/m 0 min 0 min 0 W/m 0,0 km/h (0 Bft) 95,83 %
26.02.2021 19:38 7,6 C 6,1 C 3,9 C 75 % 1036,1 hPa 0,0 l/m 0 min 0 min 0 W/m 0,0 km/h (0 Bft) 95,83 %
26.02.2021 19:40 7,6 C 6,1 C 3,9 C 75 % 1036,2 hPa 0,0 l/m 0 min 0 min 0 W/m 0,0 km/h (0 Bft) 95,74 %
26.02.2021 19:42 7,5 C 6,1 C 3,9 C 76 % 1036,2 hPa 0,0 l/m 0 min 0 min 0 W/m 3,2 km/h (1 Bft) 93,75 %
26.02.2021 19:44 7,5 C 6,1 C 3,9 C 76 % 1036,2 hPa 0,0 l/m 0 min 0 min 0 W/m 0,0 km/h (0 Bft) 95,74 %
26.02.2021 19:46 7,5 C 6,1 C 3,9 C 76 % 1036,2 hPa 0,0 l/m 0 min 0 min 0 W/m 3,2 km/h (1 Bft) 91,67 %
26.02.2021 19:48 7,4 C 6,1 C 3,9 C 76 % 1036,2 hPa 0,0 l/m 0 min 0 min 0 W/m 3,2 km/h (1 Bft) 100,00 %
26.02.2021 19:50 7,4 C 6,1 C 3,9 C 76 % 1036,3 hPa 0,0 l/m 0 min 0 min 0 W/m 0,0 km/h (0 Bft) 97,87 %
26.02.2021 19:52 7,4 C 6,1 C 3,4 C 77 % 1036,2 hPa 0,0 l/m 0 min 0 min 0 W/m 0,0 km/h (0 Bft) 97,87 %
26.02.2021 19:54 7,3 C 6,1 C 3,4 C 77 % 1036,2 hPa 0,0 l/m 0 min 0 min 0 W/m 0,0 km/h (0 Bft) 95,65 %
26.02.2021 19:56 7,3 C 6,1 C 3,4 C 77 % 1036,3 hPa 0,0 l/m 0 min 0 min 0 W/m 0,0 km/h (0 Bft) 96,23 %
26.02.2021 19:58 7,3 C 6,1 C 3,4 C 77 % 1036,3 hPa 0,0 l/m 0 min 0 min 0 W/m 3,2 km/h (1 Bft) 97,92 %
26.02.2021 20:00 7,3 C 6,1 C 3,4 C 77 % 1036,3 hPa 0,0 l/m 0 min 0 min 0 W/m 0,0 km/h (0 Bft) 97,87 %
26.02.2021 20:02 7,2 C 6,1 C 3,4 C 77 % 1036,3 hPa 0,0 l/m 0 min 0 min 0 W/m 0,0 km/h (0 Bft) 93,75 %
26.02.2021 20:04 7,1 C 6,1 C 3,4 C 77 % 1036,3 hPa 0,0 l/m 0 min 0 min 0 W/m 0,0 km/h (0 Bft) 51,22 %
26.02.2021 20:06 7,1 C 6,1 C 3,4 C 78 % 1036,3 hPa 0,0 l/m 0 min 0 min 0 W/m 0,0 km/h (0 Bft) 93,33 %
26.02.2021 20:08 7,1 C 5,6 C 3,4 C 78 % 1036,3 hPa 0,0 l/m 0 min 0 min 0 W/m 0,0 km/h (0 Bft) 97,87 %
26.02.2021 20:10 7,1 C 5,6 C 3,4 C 78 % 1036,4 hPa 0,0 l/m 0 min 0 min 0 W/m 0,0 km/h (0 Bft) 97,87 %
26.02.2021 20:12 7,0 C 5,6 C 3,4 C 78 % 1036,4 hPa 0,0 l/m 0 min 0 min 0 W/m 0,0 km/h (0 Bft) 100,00 %
26.02.2021 20:14 7,0 C 5,6 C 3,4 C 78 % 1036,5 hPa 0,0 l/m 0 min 0 min 0 W/m 0,0 km/h (0 Bft) 100,00 %
26.02.2021 20:16 7,0 C 5,6 C 3,4 C 78 % 1036,5 hPa 0,0 l/m 0 min 0 min 0 W/m 0,0 km/h (0 Bft) 97,83 %
26.02.2021 20:18 6,9 C 5,6 C 3,4 C 78 % 1036,4 hPa 0,0 l/m 0 min 0 min 0 W/m 3,2 km/h (1 Bft) 100,00 %
26.02.2021 20:20 6,9 C 5,6 C 3,4 C 79 % 1036,4 hPa 0,0 l/m 0 min 0 min 0 W/m 0,0 km/h (0 Bft) 97,87 %
26.02.2021 20:22 6,8 C 5,6 C 3,4 C 79 % 1036,5 hPa 0,0 l/m 0 min 0 min 0 W/m 0,0 km/h (0 Bft) 97,87 %
26.02.2021 20:24 6,8 C 5,6 C 3,4 C 79 % 1036,5 hPa 0,0 l/m 0 min 0 min 0 W/m 0,0 km/h (0 Bft) 97,83 %
26.02.2021 20:26 6,8 C 5,6 C 3,4 C 79 % 1036,5 hPa 0,0 l/m 0 min 0 min 0 W/m 0,0 km/h (0 Bft) 97,87 %
26.02.2021 20:28 6,7 C 5,6 C 3,4 C 79 % 1036,5 hPa 0,0 l/m 0 min 0 min 0 W/m 3,2 km/h (1 Bft) 97,83 %
26.02.2021 20:30 6,7 C 5,6 C 3,4 C 80 % 1036,5 hPa 0,0 l/m 0 min 0 min 0 W/m 0,0 km/h (0 Bft) 97,87 %
26.02.2021 20:32 6,6 C 5,6 C 3,4 C 80 % 1036,5 hPa 0,0 l/m 0 min 0 min 0 W/m 3,2 km/h (1 Bft) 95,83 %
26.02.2021 20:34 6,6 C 5,6 C 3,4 C 80 % 1036,5 hPa 0,0 l/m 0 min 0 min 0 W/m 0,0 km/h (0 Bft) 97,87 %
26.02.2021 20:36 6,6 C 5,6 C 3,4 C 80 % 1036,5 hPa 0,0 l/m 0 min 0 min 0 W/m 0,0 km/h (0 Bft) 95,74 %
26.02.2021 20:38 6,5 C 5,6 C 3,4 C 80 % 1036,5 hPa 0,0 l/m 0 min 0 min 0 W/m 0,0 km/h (0 Bft) 97,87 %
26.02.2021 20:40 6,5 C 5,6 C 3,4 C 80 % 1036,5 hPa 0,0 l/m 0 min 0 min 0 W/m 0,0 km/h (0 Bft) 97,87 %
26.02.2021 20:42 6,5 C 5,6 C 2,8 C 80 % 1036,5 hPa 0,0 l/m 0 min 0 min 0 W/m 0,0 km/h (0 Bft) 97,87 %
26.02.2021 20:44 6,5 C 5,0 C 2,8 C 80 % 1036,5 hPa 0,0 l/m 0 min 0 min 0 W/m 0,0 km/h (0 Bft) 97,87 %
26.02.2021 20:46 6,4 C 5,0 C 2,8 C 81 % 1036,5 hPa 0,0 l/m 0 min 0 min 0 W/m 0,0 km/h (0 Bft) 97,92 %
26.02.2021 20:48 6,4 C 5,0 C 2,8 C 81 % 1036,5 hPa 0,0 l/m 0 min 0 min 0 W/m 0,0 km/h (0 Bft) 97,87 %
26.02.2021 20:50 6,4 C 5,0 C 2,8 C 81 % 1036,6 hPa 0,0 l/m 0 min 0 min 0 W/m 0,0 km/h (0 Bft) 97,87 %
26.02.2021 20:52 6,4 C 5,0 C 2,8 C 81 % 1036,5 hPa 0,0 l/m 0 min 0 min 0 W/m 0,0 km/h (0 Bft) 95,74 %
26.02.2021 20:54 6,4 C 5,0 C 2,8 C 81 % 1036,5 hPa 0,0 l/m 0 min 0 min 0 W/m 0,0 km/h (0 Bft) 97,87 %
26.02.2021 20:56 6,3 C 5,0 C 2,8 C 81 % 1036,5 hPa 0,0 l/m 0 min 0 min 0 W/m 0,0 km/h (0 Bft) 97,87 %
26.02.2021 20:58 6,3 C 5,0 C 2,8 C 81 % 1036,5 hPa 0,0 l/m 0 min 0 min 0 W/m 0,0 km/h (0 Bft) 97,92 %
26.02.2021 21:00 6,3 C 5,0 C 2,8 C 81 % 1036,6 hPa 0,0 l/m 0 min 0 min 0 W/m 0,0 km/h (0 Bft) 97,14 %
26.02.2021 21:02 6,2 C 5,0 C 2,8 C 81 % 1036,6 hPa 0,0 l/m 0 min 0 min 0 W/m 0,0 km/h (0 Bft) 97,87 %
26.02.2021 21:04 6,1 C 5,0 C 2,8 C 82 % 1036,6 hPa 0,0 l/m 0 min 0 min 0 W/m 0,0 km/h (0 Bft) 95,65 %
26.02.2021 21:06 6,1 C 5,0 C 2,8 C 82 % 1036,6 hPa 0,0 l/m 0 min 0 min 0 W/m 0,0 km/h (0 Bft) 98,11 %
26.02.2021 21:08 6,1 C 5,0 C 2,8 C 82 % 1036,6 hPa 0,0 l/m 0 min 0 min 0 W/m 0,0 km/h (0 Bft) 97,92 %
26.02.2021 21:10 6,0 C 5,0 C 2,8 C 82 % 1036,6 hPa 0,0 l/m 0 min 0 min 0 W/m 0,0 km/h (0 Bft) 97,87 %
26.02.2021 21:12 6,0 C 5,0 C 2,8 C 82 % 1036,6 hPa 0,0 l/m 0 min 0 min 0 W/m 0,0 km/h (0 Bft) 95,74 %
26.02.2021 21:14 6,0 C 5,0 C 2,8 C 82 % 1036,6 hPa 0,0 l/m 0 min 0 min 0 W/m 3,2 km/h (1 Bft) 97,87 %
26.02.2021 21:16 5,9 C 5,0 C 2,8 C 83 % 1036,6 hPa 0,0 l/m 0 min 0 min 0 W/m 0,0 km/h (0 Bft) 100,00 %
26.02.2021 21:18 5,9 C 5,0 C 2,8 C 83 % 1036,7 hPa 0,0 l/m 0 min 0 min 0 W/m 0,0 km/h (0 Bft) 100,00 %
26.02.2021 21:20 5,9 C 5,0 C 2,8 C 83 % 1036,7 hPa 0,0 l/m 0 min 0 min 0 W/m 0,0 km/h (0 Bft) 100,00 %
26.02.2021 21:22 5,8 C 4,4 C 2,8 C 83 % 1036,7 hPa 0,0 l/m 0 min 0 min 0 W/m 0,0 km/h (0 Bft) 100,00 %
26.02.2021 21:24 5,8 C 4,4 C 2,8 C 83 % 1036,7 hPa 0,0 l/m 0 min 0 min 0 W/m 0,0 km/h (0 Bft) 100,00 %
26.02.2021 21:26 5,8 C 4,4 C 2,8 C 83 % 1036,7 hPa 0,0 l/m 0 min 0 min 0 W/m 0,0 km/h (0 Bft) 100,00 %
26.02.2021 21:28 5,8 C 4,4 C 2,3 C 83 % 1036,7 hPa 0,0 l/m 0 min 0 min 0 W/m 0,0 km/h (0 Bft) 100,00 %
26.02.2021 21:30 5,7 C 4,4 C 2,3 C 84 % 1036,7 hPa 0,0 l/m 0 min 0 min 0 W/m 0,0 km/h (0 Bft) 100,00 %
26.02.2021 21:32 5,6 C 4,4 C 2,3 C 83 % 1036,8 hPa 0,0 l/m 0 min 0 min 0 W/m 0,0 km/h (0 Bft) 100,00 %
26.02.2021 21:34 5,6 C 4,4 C 2,3 C 84 % 1036,7 hPa 0,0 l/m 0 min 0 min 0 W/m 3,2 km/h (1 Bft) 100,00 %
26.02.2021 21:36 5,6 C 4,4 C 2,3 C 84 % 1036,8 hPa 0,0 l/m 0 min 0 min 0 W/m 0,0 km/h (0 Bft) 100,00 %
26.02.2021 21:38 5,6 C 4,4 C 2,3 C 84 % 1036,8 hPa 0,0 l/m 0 min 0 min 0 W/m 0,0 km/h (0 Bft) 97,83 %
26.02.2021 21:40 5,5 C 4,4 C 2,3 C 84 % 1036,8 hPa 0,0 l/m 0 min 0 min 0 W/m 0,0 km/h (0 Bft) 100,00 %
26.02.2021 21:42 5,5 C 4,4 C 2,3 C 84 % 1036,9 hPa 0,0 l/m 0 min 0 min 0 W/m 3,2 km/h (1 Bft) 100,00 %
26.02.2021 21:44 5,5 C 4,4 C 2,3 C 84 % 1036,9 hPa 0,0 l/m 0 min 0 min 0 W/m 0,0 km/h (0 Bft) 100,00 %
26.02.2021 21:46 5,5 C 4,4 C 2,3 C 84 % 1036,9 hPa 0,0 l/m 0 min 0 min 0 W/m 0,0 km/h (0 Bft) 100,00 %
26.02.2021 21:48 5,4 C 4,4 C 2,3 C 84 % 1036,9 hPa 0,0 l/m 0 min 0 min 0 W/m 0,0 km/h (0 Bft) 97,87 %
26.02.2021 21:50 5,4 C 4,4 C 2,3 C 84 % 1037,0 hPa 0,0 l/m 0 min 0 min 0 W/m 0,0 km/h (0 Bft) 97,83 %
26.02.2021 21:52 5,4 C 4,4 C 2,3 C 84 % 1037,0 hPa 0,0 l/m 0 min 0 min 0 W/m 0,0 km/h (0 Bft) 100,00 %
26.02.2021 21:54 5,4 C 4,4 C 2,3 C 85 % 1037,0 hPa 0,0 l/m 0 min 0 min 0 W/m 0,0 km/h (0 Bft) 97,87 %
26.02.2021 21:56 5,4 C 4,4 C 2,3 C 85 % 1037,0 hPa 0,0 l/m 0 min 0 min 0 W/m 0,0 km/h (0 Bft) 97,87 %
26.02.2021 21:58 5,3 C 4,4 C 2,3 C 85 % 1037,0 hPa 0,0 l/m 0 min 0 min 0 W/m 0,0 km/h (0 Bft) 97,87 %
26.02.2021 22:00 5,3 C 4,4 C 2,3 C 85 % 1037,1 hPa 0,0 l/m 0 min 0 min 0 W/m 0,0 km/h (0 Bft) 97,87 %
26.02.2021 22:02 5,3 C 3,9 C 2,3 C 85 % 1037,1 hPa 0,0 l/m 0 min 0 min 0 W/m 0,0 km/h (0 Bft) 93,48 %
26.02.2021 22:04 5,3 C 3,9 C 1,7 C 85 % 1037,1 hPa 0,0 l/m 0 min 0 min 0 W/m 0,0 km/h (0 Bft) 95,74 %
26.02.2021 22:06 5,3 C 3,9 C 1,7 C 85 % 1037,1 hPa 0,0 l/m 0 min 0 min 0 W/m 0,0 km/h (0 Bft) 97,87 %
26.02.2021 22:08 5,2 C 3,9 C 1,7 C 85 % 1037,2 hPa 0,0 l/m 0 min 0 min 0 W/m 0,0 km/h (0 Bft) 97,87 %
26.02.2021 22:10 5,2 C 3,9 C 1,7 C 85 % 1037,2 hPa 0,0 l/m 0 min 0 min 0 W/m 0,0 km/h (0 Bft) 97,87 %
26.02.2021 22:12 5,2 C 3,9 C 1,7 C 85 % 1037,3 hPa 0,0 l/m 0 min 0 min 0 W/m 0,0 km/h (0 Bft) 97,87 %
26.02.2021 22:14 5,1 C 3,9 C 1,7 C 85 % 1037,3 hPa 0,0 l/m 0 min 0 min 0 W/m 0,0 km/h (0 Bft) 97,83 %
26.02.2021 22:16 5,1 C 3,9 C 1,7 C 85 % 1037,3 hPa 0,0 l/m 0 min 0 min 0 W/m 0,0 km/h (0 Bft) 95,74 %
26.02.2021 22:18 5,1 C 3,9 C 1,7 C 85 % 1037,4 hPa 0,0 l/m 0 min 0 min 0 W/m 0,0 km/h (0 Bft) 97,87 %
26.02.2021 22:20 5,1 C 3,9 C 1,7 C 85 % 1037,4 hPa 0,0 l/m 0 min 0 min 0 W/m 0,0 km/h (0 Bft) 97,87 %
26.02.2021 22:22 5,1 C 3,9 C 1,7 C 85 % 1037,4 hPa 0,0 l/m 0 min 0 min 0 W/m 0,0 km/h (0 Bft) 97,87 %
26.02.2021 22:24 5,0 C 3,9 C 1,7 C 85 % 1037,4 hPa 0,0 l/m 0 min 0 min 0 W/m 0,0 km/h (0 Bft) 97,87 %
26.02.2021 22:26 5,0 C 3,9 C 1,7 C 85 % 1037,5 hPa 0,0 l/m 0 min 0 min 0 W/m 0,0 km/h (0 Bft) 97,83 %
26.02.2021 22:28 5,0 C 3,9 C 1,7 C 85 % 1037,5 hPa 0,0 l/m 0 min 0 min 0 W/m 0,0 km/h (0 Bft) 97,73 %
26.02.2021 22:30 5,0 C 3,9 C 1,7 C 85 % 1037,5 hPa 0,0 l/m 0 min 0 min 0 W/m 0,0 km/h (0 Bft) 97,87 %
26.02.2021 22:32 4,9 C 3,9 C 1,7 C 85 % 1037,5 hPa 0,0 l/m 0 min 0 min 0 W/m 0,0 km/h (0 Bft) 100,00 %
26.02.2021 22:34 4,9 C 3,9 C 1,7 C 85 % 1037,6 hPa 0,0 l/m 0 min 0 min 0 W/m 0,0 km/h (0 Bft) 100,00 %
26.02.2021 22:36 4,9 C 3,9 C 1,7 C 85 % 1037,6 hPa 0,0 l/m 0 min 0 min 0 W/m 0,0 km/h (0 Bft) 100,00 %
26.02.2021 22:38 4,9 C 3,3 C 1,7 C 85 % 1037,6 hPa 0,0 l/m 0 min 0 min 0 W/m 0,0 km/h (0 Bft) 100,00 %
26.02.2021 22:40 4,9 C 3,9 C 1,7 C 85 % 1037,7 hPa 0,0 l/m 0 min 0 min 0 W/m 0,0 km/h (0 Bft) 97,87 %
26.02.2021 22:42 4,9 C 3,3 C 1,7 C 85 % 1037,6 hPa 0,0 l/m 0 min 0 min 0 W/m 0,0 km/h (0 Bft) 100,00 %
26.02.2021 22:44 4,8 C 3,3 C 1,7 C 85 % 1037,7 hPa 0,0 l/m 0 min 0 min 0 W/m 0,0 km/h (0 Bft) 100,00 %
26.02.2021 22:46 4,8 C 3,3 C 1,7 C 86 % 1037,7 hPa 0,0 l/m 0 min 0 min 0 W/m 3,2 km/h (1 Bft) 100,00 %
26.02.2021 22:48 4,8 C 3,3 C 1,7 C 86 % 1037,7 hPa 0,0 l/m 0 min 0 min 0 W/m 0,0 km/h (0 Bft) 98,11 %
26.02.2021 22:50 4,8 C 3,3 C 1,7 C 86 % 1037,7 hPa 0,0 l/m 0 min 0 min 0 W/m 0,0 km/h (0 Bft) 100,00 %
26.02.2021 22:52 4,7 C 3,3 C 1,7 C 86 % 1037,8 hPa 0,0 l/m 0 min 0 min 0 W/m 0,0 km/h (0 Bft) 97,87 %
26.02.2021 22:54 4,7 C 3,3 C 1,7 C 86 % 1037,8 hPa 0,0 l/m 0 min 0 min 0 W/m 0,0 km/h (0 Bft) 100,00 %
26.02.2021 22:56 4,6 C 3,3 C 1,7 C 86 % 1037,7 hPa 0,0 l/m 0 min 0 min 0 W/m 0,0 km/h (0 Bft) 100,00 %
26.02.2021 22:58 4,6 C 3,3 C 1,7 C 86 % 1037,7 hPa 0,0 l/m 0 min 0 min 0 W/m 0,0 km/h (0 Bft) 100,00 %
26.02.2021 23:00 4,6 C 3,3 C 1,7 C 86 % 1037,7 hPa 0,0 l/m 0 min 0 min 0 W/m 0,0 km/h (0 Bft) 100,00 %
26.02.2021 23:02 4,6 C 3,3 C 1,7 C 86 % 1037,7 hPa 0,0 l/m 0 min 0 min 0 W/m 0,0 km/h (0 Bft) 100,00 %
26.02.2021 23:04 4,6 C 3,3 C 1,7 C 86 % 1037,8 hPa 0,0 l/m 0 min 0 min 0 W/m 0,0 km/h (0 Bft) 100,00 %
26.02.2021 23:06 4,5 C 3,3 C 1,1 C 86 % 1037,8 hPa 0,0 l/m 0 min 0 min 0 W/m 0,0 km/h (0 Bft) 100,00 %
26.02.2021 23:08 4,5 C 3,3 C 1,1 C 86 % 1037,8 hPa 0,0 l/m 0 min 0 min 0 W/m 0,0 km/h (0 Bft) 100,00 %
26.02.2021 23:10 4,5 C 3,3 C 1,1 C 86 % 1037,8 hPa 0,0 l/m 0 min 0 min 0 W/m 0,0 km/h (0 Bft) 100,00 %
26.02.2021 23:12 4,5 C 3,3 C 1,1 C 86 % 1037,7 hPa 0,0 l/m 0 min 0 min 0 W/m 0,0 km/h (0 Bft) 100,00 %
26.02.2021 23:14 4,5 C 3,3 C 1,1 C 86 % 1037,8 hPa 0,0 l/m 0 min 0 min 0 W/m 0,0 km/h (0 Bft) 97,87 %
26.02.2021 23:16 4,5 C 3,3 C 1,1 C 87 % 1037,8 hPa 0,0 l/m 0 min 0 min 0 W/m 0,0 km/h (0 Bft) 100,00 %
26.02.2021 23:18 4,4 C 3,3 C 1,1 C 87 % 1037,8 hPa 0,0 l/m 0 min 0 min 0 W/m 0,0 km/h (0 Bft) 100,00 %
26.02.2021 23:20 4,4 C 2,8 C 1,1 C 87 % 1037,9 hPa 0,0 l/m 0 min 0 min 0 W/m 0,0 km/h (0 Bft) 100,00 %
26.02.2021 23:22 4,4 C 2,8 C 1,1 C 87 % 1037,8 hPa 0,0 l/m 0 min 0 min 0 W/m 0,0 km/h (0 Bft) 100,00 %
26.02.2021 23:24 4,4 C 2,8 C 1,1 C 86 % 1037,9 hPa 0,0 l/m 0 min 0 min 0 W/m 0,0 km/h (0 Bft) 100,00 %
26.02.2021 23:26 4,4 C 2,8 C 1,1 C 86 % 1037,9 hPa 0,0 l/m 0 min 0 min 0 W/m 0,0 km/h (0 Bft) 97,87 %
26.02.2021 23:28 4,3 C 2,8 C 1,1 C 86 % 1037,8 hPa 0,0 l/m 0 min 0 min 0 W/m 0,0 km/h (0 Bft) 97,87 %
26.02.2021 23:30 4,3 C 2,8 C 1,1 C 86 % 1037,8 hPa 0,0 l/m 0 min 0 min 0 W/m 0,0 km/h (0 Bft) 100,00 %
26.02.2021 23:32 4,3 C 2,8 C 1,1 C 86 % 1037,8 hPa 0,0 l/m 0 min 0 min 0 W/m 0,0 km/h (0 Bft) 100,00 %
26.02.2021 23:34 4,3 C 2,8 C 1,1 C 86 % 1037,8 hPa 0,0 l/m 0 min 0 min 0 W/m 0,0 km/h (0 Bft) 97,87 %
26.02.2021 23:36 4,3 C 2,2 C 0,6 C 86 % 1037,9 hPa 0,0 l/m 0 min 0 min 0 W/m 0,0 km/h (0 Bft) 100,00 %
26.02.2021 23:38 4,2 C 2,2 C 0,6 C 86 % 1037,9 hPa 0,0 l/m 0 min 0 min 0 W/m 0,0 km/h (0 Bft) 100,00 %
26.02.2021 23:40 4,1 C 2,2 C 0,6 C 86 % 1037,9 hPa 0,0 l/m 0 min 0 min 0 W/m 0,0 km/h (0 Bft) 95,74 %
26.02.2021 23:42 4,1 C 2,2 C 0,6 C 86 % 1037,9 hPa 0,0 l/m 0 min 0 min 0 W/m 0,0 km/h (0 Bft) 97,87 %
26.02.2021 23:44 4,1 C 2,2 C 0,6 C 86 % 1038,0 hPa 0,0 l/m 0 min 0 min 0 W/m 0,0 km/h (0 Bft) 97,87 %
26.02.2021 23:46 4,1 C 2,2 C 0,6 C 86 % 1038,0 hPa 0,0 l/m 0 min 0 min 0 W/m 0,0 km/h (0 Bft) 95,74 %
26.02.2021 23:48 4,0 C 2,2 C 0,6 C 86 % 1037,9 hPa 0,0 l/m 0 min 0 min 0 W/m 0,0 km/h (0 Bft) 95,65 %
26.02.2021 23:50 4,0 C 2,8 C 0,6 C 86 % 1037,9 hPa 0,0 l/m 0 min 0 min 0 W/m 0,0 km/h (0 Bft) 97,87 %
26.02.2021 23:52 4,0 C 2,8 C 0,6 C 86 % 1037,9 hPa 0,0 l/m 0 min 0 min 0 W/m 3,2 km/h (1 Bft) 95,74 %
26.02.2021 23:54 4,0 C 2,8 C 0,6 C 86 % 1037,9 hPa 0,0 l/m 0 min 0 min 0 W/m 0,0 km/h (0 Bft) 97,87 %
26.02.2021 23:56 3,9 C 2,8 C 1,1 C 87 % 1038,0 hPa 0,0 l/m 0 min 0 min 0 W/m 0,0 km/h (0 Bft) 95,74 %
26.02.2021 23:58 3,9 C 2,8 C 1,1 C 87 % 1038,0 hPa 0,0 l/m 0 min 0 min 0 W/m 0,0 km/h (0 Bft) 97,87 %
_ Min-Zeit 23:56 23:36 23:36 13:40 00:00 - - - - 00:00 20:04
Minimum _ 3,9 C 2,2 C 0,6 C 61 % 1029,6 hPa - - - - 0,0 km/h (0 Bft) 51,22 %
_ Max-Zeit 14:58 14:44 14:48 01:50 23:44 00:50 13:35 00:34 13:42 01:32 00:02
Maximum _ 12,5 C 18,3 C 21,7 C 96 % 1038,0 hPa 0,2 l/m 5 min 2 min 689 W/m 25,7 km/h
N (4 Bft)
100,00 %
Durchschnitt _ 8,2 C 8,2 C 7,1 C 83 % 1033,8 hPa #4,0 l/m #3:58 h #3:30 h 200 W/m 1,2 km/h (1 Bft) 97,42 %
© 2021 W. Hausmann